Observation data for Hobbs on 01/22/2019      Previous  Date  Next       Current Mesonet Observations  Soil Data  Daily Summary Page  Observations in Plain Language
KHO1 220600Z 18012KT 08/M00 A2971 RMK A01 T00841004  RH  054%=      5-min Rain = 0
KHO1 220601Z 18013KT 08/M00 A2972 RMK A01 T00831004  RH  054%=      5-min Rain = 0
KHO1 220602Z 18013KT 08/M00 A2971 RMK A01 T00831004  RH  054%=      5-min Rain = 0
KHO1 220603Z 17012KT 08/M00 A2971 RMK A01 T00831004  RH  054%=      5-min Rain = 0
KHO1 220604Z 18011KT 08/M00 A2971 RMK A01 T00831004  RH  054%=      5-min Rain = 0
KHO1 220605Z 18012KT 08/M00 A2971 RMK A01 T00821003  RH  055%=      5-min Rain = 0
KHO1 220606Z 18012KT 08/M00 A2971 RMK A01 T00821003  RH  055%=      5-min Rain = 0
KHO1 220607Z 18013KT 08/M00 A2971 RMK A01 T00821003  RH  055%=      5-min Rain = 0
KHO1 220608Z 18012KT 08/M00 A2971 RMK A01 T00821003  RH  055%=      5-min Rain = 0
KHO1 220609Z 17011KT 08/M00 A2971 RMK A01 T00821003  RH  055%=      5-min Rain = 0
KHO1 220610Z 17013KT 08/M00 A2971 RMK A01 T00821002  RH  055%=      5-min Rain = 0
KHO1 220611Z 17012KT 08/M00 A2971 RMK A01 T00821002  RH  055%=      5-min Rain = 0
KHO1 220612Z 18013KT 08/M00 A2971 RMK A01 T00821002  RH  055%=      5-min Rain = 0
KHO1 220613Z 18012KT 08/M00 A2971 RMK A01 T00821002  RH  056%=      5-min Rain = 0
KHO1 220614Z 18013KT 08/M00 A2971 RMK A01 T00811002  RH  056%=      5-min Rain = 0
KHO1 220615Z 18013KT 08/M00 A2971 RMK A01 T00821001  RH  056%=      5-min Rain = 0
KHO1 220616Z 17012KT 08/M00 A2971 RMK A01 T00811001  RH  056%=      5-min Rain = 0
KHO1 220617Z 18013KT 08/M00 A297 RMK A01 T00811001  RH  056%=      5-min Rain = 0
KHO1 220618Z 18014KT 08/M00 A297 RMK A01 T00811001  RH  056%=      5-min Rain = 0
KHO1 220619Z 18012KT 08/M00 A2971 RMK A01 T00811001  RH  056%=      5-min Rain = 0
KHO1 220620Z 18012KT 08/M00 A2971 RMK A01 T00811001  RH  056%=      5-min Rain = 0
KHO1 220621Z 17013KT 08/00 A297 RMK A01 T008100-0  RH  057%=      5-min Rain = 0
KHO1 220622Z 17013KT 08/00 A297 RMK A01 T00810000  RH  057%=      5-min Rain = 0
KHO1 220623Z 17012KT 08/00 A297 RMK A01 T00810000  RH  057%=      5-min Rain = 0
KHO1 220624Z 18012G17KT 08/00 A297 RMK A01 T00800000  RH  057%=      5-min Rain = 0
KHO1 220625Z 18013KT 08/00 A2971 RMK A01 T00800000  RH  057%=      5-min Rain = 0
KHO1 220626Z 18011KT 08/00 A2971 RMK A01 T00800000  RH  057%=      5-min Rain = 0
KHO1 220627Z 18011KT 08/00 A2971 RMK A01 T00800001  RH  057%=      5-min Rain = 0
KHO1 220628Z 18010KT 08/00 A2971 RMK A01 T00790000  RH  057%=      5-min Rain = 0
KHO1 220629Z 18011KT 08/00 A297 RMK A01 T00790001  RH  058%=      5-min Rain = 0
KHO1 220630Z 18011KT 08/00 A2971 RMK A01 T00790001  RH  058%=      5-min Rain = 0
KHO1 220631Z 18012KT 08/00 A2971 RMK A01 T00790001  RH  058%=      5-min Rain = 0
KHO1 220632Z 18011KT 08/00 A2971 RMK A01 T00780001  RH  058%=      5-min Rain = 0
KHO1 220633Z 18011KT 08/00 A2971 RMK A01 T00780001  RH  058%=      5-min Rain = 0
KHO1 220634Z 18012KT 08/00 A2971 RMK A01 T00780002  RH  058%=      5-min Rain = 0
KHO1 220635Z 18009KT 08/00 A2971 RMK A01 T00780001  RH  058%=      5-min Rain = 0
KHO1 220636Z 18011KT 08/00 A2971 RMK A01 T00780001  RH  059%=      5-min Rain = 0
KHO1 220637Z 18013KT 08/00 A2971 RMK A01 T00780002  RH  059%=      5-min Rain = 0
KHO1 220638Z 18013KT 08/00 A2971 RMK A01 T00780003  RH  059%=      5-min Rain = 0
KHO1 220639Z 18012KT 08/00 A2971 RMK A01 T00790003  RH  059%=      5-min Rain = 0
KHO1 220640Z 18012KT 08/00 A2971 RMK A01 T00780003  RH  059%=      5-min Rain = 0
KHO1 220641Z 18011KT 08/00 A2971 RMK A01 T00780003  RH  059%=      5-min Rain = 0
KHO1 220642Z 18013KT 08/00 A2971 RMK A01 T00780003  RH  059%=      5-min Rain = 0
KHO1 220643Z 18012KT 08/00 A2971 RMK A01 T00780003  RH  059%=      5-min Rain = 0
KHO1 220644Z 19011KT 08/00 A2971 RMK A01 T00780003  RH  059%=      5-min Rain = 0
KHO1 220645Z 19010KT 08/00 A2971 RMK A01 T00780003  RH  059%=      5-min Rain = 0
KHO1 220646Z 18010KT 08/00 A2971 RMK A01 T00770003  RH  059%=      5-min Rain = 0
KHO1 220647Z 19011KT 08/00 A2971 RMK A01 T00770004  RH  060%=      5-min Rain = 0
KHO1 220648Z 18010KT 08/00 A2971 RMK A01 T00770003  RH  060%=      5-min Rain = 0
KHO1 220649Z 19009KT 08/00 A2971 RMK A01 T00760003  RH  060%=      5-min Rain = 0
KHO1 220650Z 19009KT 08/00 A2971 RMK A01 T00750003  RH  060%=      5-min Rain = 0
KHO1 220651Z 19010KT 08/00 A2971 RMK A01 T00750003  RH  060%=      5-min Rain = 0
KHO1 220652Z 19010KT 08/00 A2971 RMK A01 T00750004  RH  061%=      5-min Rain = 0
KHO1 220653Z 19011KT 08/00 A2971 RMK A01 T00750004  RH  061%=      5-min Rain = 0
KHO1 220654Z 19011KT 08/00 A2971 RMK A01 T00750004  RH  061%=      5-min Rain = 0
KHO1 220655Z 19010KT 07/00 A2971 RMK A01 T00740004  RH  061%=      5-min Rain = 0
KHO1 220656Z 19011KT 07/00 A2971 RMK A01 T00740004  RH  061%=      5-min Rain = 0
KHO1 220657Z 19012KT 07/01 A2971 RMK A01 T00740005  RH  061%=      5-min Rain = 0
KHO1 220658Z 19012KT 08/01 A2971 RMK A01 T00750005  RH  061%=      5-min Rain = 0
KHO1 220659Z 18011KT 08/01 A297 RMK A01 T00750006  RH  061%=      5-min Rain = 0
KHO1 220700Z 19011KT 08/01 A297 RMK A01 T00750006  RH  061%=      5-min Rain = 0
KHO1 220701Z 20011KT 08/01 A2971 RMK A01 T00750006  RH  061%=      5-min Rain = 0
KHO1 220702Z 20012KT 08/01 A2971 RMK A01 T00750006  RH  062%=      5-min Rain = 0
KHO1 220703Z 19011KT 08/01 A2971 RMK A01 T00750006  RH  062%=      5-min Rain = 0
KHO1 220704Z 19011KT 08/01 A297 RMK A01 T00750006  RH  062%=      5-min Rain = 0
KHO1 220705Z 19011KT 08/01 A2971 RMK A01 T00750006  RH  062%=      5-min Rain = 0
KHO1 220706Z 19011KT 08/01 A2971 RMK A01 T00750007  RH  062%=      5-min Rain = 0
KHO1 220707Z 19011KT 08/01 A2971 RMK A01 T00750007  RH  062%=      5-min Rain = 0
KHO1 220708Z 19011KT 08/01 A2971 RMK A01 T00750007  RH  062%=      5-min Rain = 0
KHO1 220709Z 19011KT 08/01 A2971 RMK A01 T00750007  RH  062%=      5-min Rain = 0
KHO1 220710Z 19011KT 07/01 A2971 RMK A01 T00740007  RH  062%=      5-min Rain = 0
KHO1 220711Z 19011KT 08/01 A2971 RMK A01 T00750008  RH  062%=      5-min Rain = 0
KHO1 220712Z 19013KT 08/01 A2971 RMK A01 T00750008  RH  062%=      5-min Rain = 0
KHO1 220713Z 18011KT 08/01 A2971 RMK A01 T00760008  RH  062%=      5-min Rain = 0
KHO1 220714Z 19010KT 08/01 A2971 RMK A01 T00750008  RH  062%=      5-min Rain = 0
KHO1 220715Z 19011KT 08/01 A2971 RMK A01 T00760008  RH  062%=      5-min Rain = 0
KHO1 220716Z 19011KT 08/01 A2971 RMK A01 T00760008  RH  062%=      5-min Rain = 0
KHO1 220717Z 19009KT 08/01 A2971 RMK A01 T00750008  RH  062%=      5-min Rain = 0
KHO1 220718Z 19010KT 08/01 A2971 RMK A01 T00750008  RH  063%=      5-min Rain = 0
KHO1 220719Z 19011KT 08/01 A2971 RMK A01 T00750009  RH  063%=      5-min Rain = 0
KHO1 220720Z 19010KT 08/01 A2971 RMK A01 T00750009  RH  063%=      5-min Rain = 0
KHO1 220721Z 19013KT 08/01 A2971 RMK A01 T00760009  RH  063%=      5-min Rain = 0
KHO1 220722Z 19011KT 08/01 A2971 RMK A01 T00760009  RH  062%=      5-min Rain = 0
KHO1 220723Z 19010KT 08/01 A297 RMK A01 T00760009  RH  063%=      5-min Rain = 0
KHO1 220724Z 19009KT 08/01 A2971 RMK A01 T00760009  RH  063%=      5-min Rain = 0
KHO1 220725Z 19010KT 08/01 A2971 RMK A01 T00750009  RH  063%=      5-min Rain = 0
KHO1 220726Z 19011KT 08/01 A2971 RMK A01 T00750009  RH  063%=      5-min Rain = 0
KHO1 220727Z 19010KT 08/01 A2971 RMK A01 T00750009  RH  063%=      5-min Rain = 0
KHO1 220728Z 19011KT 08/01 A297 RMK A01 T00750009  RH  063%=      5-min Rain = 0
KHO1 220729Z 19013KT 08/01 A2971 RMK A01 T00750009  RH  063%=      5-min Rain = 0
KHO1 220730Z 19010G15KT 08/01 A2971 RMK A01 T00750010  RH  063%=      5-min Rain = 0
KHO1 220731Z 18011KT 08/01 A297 RMK A01 T00750009  RH  063%=      5-min Rain = 0
KHO1 220732Z 19011KT 07/01 A297 RMK A01 T00740009  RH  063%=      5-min Rain = 0
KHO1 220733Z 19010KT 08/01 A297 RMK A01 T00750010  RH  063%=      5-min Rain = 0
KHO1 220734Z 19010KT 08/01 A297 RMK A01 T00750010  RH  064%=      5-min Rain = 0
KHO1 220735Z 19011KT 08/01 A297 RMK A01 T00750011  RH  064%=      5-min Rain = 0
KHO1 220736Z 19010KT 08/01 A297 RMK A01 T00750011  RH  064%=      5-min Rain = 0
KHO1 220737Z 18011KT 08/01 A297 RMK A01 T00750011  RH  064%=      5-min Rain = 0
KHO1 220738Z 18010KT 08/01 A297 RMK A01 T00750011  RH  064%=      5-min Rain = 0
KHO1 220739Z 19011KT 08/01 A297 RMK A01 T00750010  RH  064%=      5-min Rain = 0
KHO1 220740Z 19010KT 07/01 A297 RMK A01 T00740011  RH  064%=      5-min Rain = 0
KHO1 220741Z 19011KT 07/01 A297 RMK A01 T00740011  RH  064%=      5-min Rain = 0
KHO1 220742Z 19009KT 07/01 A297 RMK A01 T00740010  RH  064%=      5-min Rain = 0
KHO1 220743Z 19010KT 07/01 A297 RMK A01 T00740011  RH  064%=      5-min Rain = 0
KHO1 220744Z 19010KT 07/01 A297 RMK A01 T00730011  RH  064%=      5-min Rain = 0
KHO1 220745Z 18011KT 07/01 A297 RMK A01 T00730011  RH  064%=      5-min Rain = 0
KHO1 220746Z 19009KT 07/01 A297 RMK A01 T00730010  RH  064%=      5-min Rain = 0
KHO1 220747Z 19009KT 07/01 A297 RMK A01 T00720010  RH  065%=      5-min Rain = 0
KHO1 220748Z 19010KT 07/01 A297 RMK A01 T00710011  RH  065%=      5-min Rain = 0
KHO1 220749Z 19011KT 07/01 A297 RMK A01 T00720011  RH  065%=      5-min Rain = 0
KHO1 220750Z 19011KT 07/01 A297 RMK A01 T00720011  RH  065%=      5-min Rain = 0
KHO1 220751Z 19011KT 07/01 A297 RMK A01 T00720011  RH  065%=      5-min Rain = 0
KHO1 220752Z 19011KT 07/01 A297 RMK A01 T00720012  RH  065%=      5-min Rain = 0
KHO1 220753Z 19010KT 07/01 A297 RMK A01 T00720011  RH  065%=      5-min Rain = 0
KHO1 220754Z 19010KT 07/01 A297 RMK A01 T00720011  RH  065%=      5-min Rain = 0
KHO1 220755Z 19010KT 07/01 A297 RMK A01 T00720011  RH  065%=      5-min Rain = 0
KHO1 220756Z 19010KT 07/01 A297 RMK A01 T00710011  RH  066%=      5-min Rain = 0
KHO1 220757Z 19009KT 07/01 A297 RMK A01 T00710011  RH  066%=      5-min Rain = 0
KHO1 220758Z 19010KT 07/01 A297 RMK A01 T00710012  RH  066%=      5-min Rain = 0
KHO1 220759Z 19009KT 07/01 A297 RMK A01 T00710012  RH  066%=      5-min Rain = 0
KHO1 220800Z 19010KT 07/01 A297 RMK A01 T00710012  RH  066%=      5-min Rain = 0
KHO1 220801Z 19010KT 07/01 A297 RMK A01 T00710012  RH  066%=      5-min Rain = 0
KHO1 220802Z 19010KT 07/01 A297 RMK A01 T00710012  RH  066%=      5-min Rain = 0
KHO1 220803Z 19009KT 07/01 A297 RMK A01 T00710012  RH  066%=      5-min Rain = 0
KHO1 220804Z 19011KT 07/01 A297 RMK A01 T00710012  RH  066%=      5-min Rain = 0
KHO1 220805Z 19011KT 07/01 A297 RMK A01 T00710013  RH  066%=      5-min Rain = 0
KHO1 220806Z 19009KT 07/01 A2971 RMK A01 T00710012  RH  066%=      5-min Rain = 0
KHO1 220807Z 19009KT 07/01 A2971 RMK A01 T00700012  RH  066%=      5-min Rain = 0
KHO1 220808Z 19010KT 07/01 A2971 RMK A01 T00700012  RH  067%=      5-min Rain = 0
KHO1 220809Z 19010KT 07/01 A2971 RMK A01 T00700012  RH  067%=      5-min Rain = 0
KHO1 220810Z 19009KT 07/01 A2971 RMK A01 T00690012  RH  067%=      5-min Rain = 0
KHO1 220811Z 19010KT 07/01 A2971 RMK A01 T00690012  RH  067%=      5-min Rain = 0
KHO1 220812Z 19009KT 07/01 A2971 RMK A01 T00690012  RH  067%=      5-min Rain = 0
KHO1 220813Z 19008KT 07/01 A2971 RMK A01 T00680012  RH  067%=      5-min Rain = 0
KHO1 220814Z 19010KT 07/01 A2971 RMK A01 T00680012  RH  067%=      5-min Rain = 0
KHO1 220815Z 19009KT 07/01 A2971 RMK A01 T00680012  RH  068%=      5-min Rain = 0
KHO1 220816Z 19009KT 07/01 A297 RMK A01 T00680012  RH  068%=      5-min Rain = 0
KHO1 220817Z 18009KT 07/01 A2971 RMK A01 T00680012  RH  068%=      5-min Rain = 0
KHO1 220818Z 18010KT 07/01 A2971 RMK A01 T00680013  RH  068%=      5-min Rain = 0
KHO1 220819Z 18009KT 07/01 A2971 RMK A01 T00680012  RH  068%=      5-min Rain = 0
KHO1 220820Z 19009KT 07/01 A2971 RMK A01 T00670012  RH  068%=      5-min Rain = 0
KHO1 220821Z 19008KT 07/01 A2971 RMK A01 T00670012  RH  068%=      5-min Rain = 0
KHO1 220822Z 19008KT 07/01 A297 RMK A01 T00670012  RH  068%=      5-min Rain = 0
KHO1 220823Z 19009KT 07/01 A297 RMK A01 T00660012  RH  068%=      5-min Rain = 0
KHO1 220824Z 18009KT 07/01 A297 RMK A01 T00670013  RH  069%=      5-min Rain = 0
KHO1 220825Z 19009KT 07/01 A2971 RMK A01 T00680014  RH  068%=      5-min Rain = 0
KHO1 220826Z 19009KT 07/01 A2971 RMK A01 T00680014  RH  068%=      5-min Rain = 0
KHO1 220827Z 19009KT 07/01 A2971 RMK A01 T00680014  RH  068%=      5-min Rain = 0
KHO1 220828Z 19009KT 07/01 A2971 RMK A01 T00690014  RH  068%=      5-min Rain = 0
KHO1 220829Z 19008KT 07/01 A2971 RMK A01 T00690014  RH  068%=      5-min Rain = 0
KHO1 220830Z 19009KT 07/02 A2971 RMK A01 T00690015  RH  068%=      5-min Rain = 0
KHO1 220831Z 19008KT 07/02 A2971 RMK A01 T00700015  RH  068%=      5-min Rain = 0
KHO1 220832Z 19007KT 07/01 A2971 RMK A01 T00700014  RH  068%=      5-min Rain = 0
KHO1 220833Z 19007KT 07/01 A2971 RMK A01 T00690014  RH  068%=      5-min Rain = 0
KHO1 220834Z 19007KT 07/02 A2971 RMK A01 T00680015  RH  069%=      5-min Rain = 0
KHO1 220835Z 19007KT 07/01 A2971 RMK A01 T00690014  RH  068%=      5-min Rain = 0
KHO1 220836Z 19007KT 07/01 A2971 RMK A01 T00680014  RH  069%=      5-min Rain = 0
KHO1 220837Z 19007KT 07/01 A2971 RMK A01 T00680014  RH  069%=      5-min Rain = 0
KHO1 220838Z 19006KT 07/01 A2971 RMK A01 T00670014  RH  069%=      5-min Rain = 0
KHO1 220839Z 19007KT 07/01 A2971 RMK A01 T00670014  RH  069%=      5-min Rain = 0
KHO1 220840Z 19006KT 07/01 A2971 RMK A01 T00660014  RH  069%=      5-min Rain = 0
KHO1 220841Z 19006KT 07/01 A297 RMK A01 T00660014  RH  069%=      5-min Rain = 0
KHO1 220842Z 19006KT 07/01 A2971 RMK A01 T00660014  RH  069%=      5-min Rain = 0
KHO1 220843Z 18006KT 07/01 A297 RMK A01 T00650013  RH  069%=      5-min Rain = 0
KHO1 220844Z 18006KT 07/01 A297 RMK A01 T00650013  RH  069%=      5-min Rain = 0
KHO1 220845Z 18006KT 07/01 A297 RMK A01 T00650013  RH  070%=      5-min Rain = 0
KHO1 220846Z 18006KT 06/01 A2971 RMK A01 T00640013  RH  070%=      5-min Rain = 0
KHO1 220847Z 19005KT 06/01 A2971 RMK A01 T00640013  RH  070%=      5-min Rain = 0
KHO1 220848Z 19004KT 06/01 A2971 RMK A01 T00630012  RH  070%=      5-min Rain = 0
KHO1 220849Z 20004KT 06/01 A2971 RMK A01 T00630012  RH  070%=      5-min Rain = 0
KHO1 220850Z 20004KT 06/01 A2971 RMK A01 T00620012  RH  070%=      5-min Rain = 0
KHO1 220851Z 19004KT 06/01 A2971 RMK A01 T00620012  RH  070%=      5-min Rain = 0
KHO1 220852Z 20004KT 06/01 A2971 RMK A01 T00610012  RH  070%=      5-min Rain = 0
KHO1 220853Z 20004KT 06/01 A2971 RMK A01 T00610011  RH  071%=      5-min Rain = 0
KHO1 220854Z 21004KT 06/01 A2971 RMK A01 T00600011  RH  071%=      5-min Rain = 0
KHO1 220855Z 22005KT 06/01 A2971 RMK A01 T00600011  RH  071%=      5-min Rain = 0
KHO1 220856Z 22004KT 06/01 A2971 RMK A01 T00590010  RH  071%=      5-min Rain = 0
KHO1 220857Z 22005KT 06/01 A2971 RMK A01 T00580011  RH  072%=      5-min Rain = 0
KHO1 220858Z 21005KT 06/01 A2971 RMK A01 T00590013  RH  072%=      5-min Rain = 0
KHO1 220859Z 21005KT 06/01 A2971 RMK A01 T00590012  RH  072%=      5-min Rain = 0
KHO1 220900Z 20005KT 06/01 A2971 RMK A01 T00590011  RH  072%=      5-min Rain = 0
KHO1 220901Z 23005KT 06/01 A2971 RMK A01 T00580011  RH  072%=      5-min Rain = 0
KHO1 220902Z 24005KT 06/01 A2972 RMK A01 T00570011  RH  072%=      5-min Rain = 0
KHO1 220903Z 23004KT 06/01 A2972 RMK A01 T00570011  RH  072%=      5-min Rain = 0
KHO1 220904Z 21004KT 06/01 A2971 RMK A01 T00560011  RH  073%=      5-min Rain = 0
KHO1 220905Z 20006KT 06/01 A2971 RMK A01 T00560012  RH  073%=      5-min Rain = 0
KHO1 220906Z 22005KT 06/01 A2972 RMK A01 T00560011  RH  073%=      5-min Rain = 0
KHO1 220907Z 27005KT 06/01 A2972 RMK A01 T00550010  RH  073%=      5-min Rain = 0
KHO1 220908Z 31006KT 05/01 A2972 RMK A01 T00540009  RH  073%=      5-min Rain = 0
KHO1 220909Z 31005KT 05/01 A2972 RMK A01 T00530010  RH  074%=      5-min Rain = 0
KHO1 220910Z 29004KT 05/01 A2972 RMK A01 T00520010  RH  074%=      5-min Rain = 0
KHO1 220911Z 22002KT 05/01 A2972 RMK A01 T00530011  RH  074%=      5-min Rain = 0
KHO1 220912Z 19002KT 05/01 A2972 RMK A01 T00530011  RH  074%=      5-min Rain = 0
KHO1 220913Z 23002KT 05/01 A2972 RMK A01 T00530011  RH  074%=      5-min Rain = 0
KHO1 220914Z 27003KT 05/01 A2972 RMK A01 T00530011  RH  074%=      5-min Rain = 0
KHO1 220915Z 28004KT 05/01 A2973 RMK A01 T00530011  RH  074%=      5-min Rain = 0
KHO1 220916Z 27003KT 05/01 A2973 RMK A01 T00530012  RH  075%=      5-min Rain = 0
KHO1 220917Z 26004KT 05/01 A2973 RMK A01 T00540013  RH  075%=      5-min Rain = 0
KHO1 220918Z 26004KT 06/01 A2973 RMK A01 T00550013  RH  074%=      5-min Rain = 0
KHO1 220919Z 26004KT 06/01 A2972 RMK A01 T00550013  RH  074%=      5-min Rain = 0
KHO1 220920Z 27003KT 06/01 A2972 RMK A01 T00560013  RH  074%=      5-min Rain = 0
KHO1 220921Z 27001KT 06/01 A2972 RMK A01 T00560012  RH  074%=      5-min Rain = 0
KHO1 220922Z 23001KT 06/01 A2972 RMK A01 T00550012  RH  074%=      5-min Rain = 0
KHO1 220923Z 21002KT 06/01 A2972 RMK A01 T00550011  RH  073%=      5-min Rain = 0
KHO1 220924Z 23003KT 05/01 A2972 RMK A01 T00540011  RH  073%=      5-min Rain = 0
KHO1 220925Z 25003KT 05/01 A2972 RMK A01 T00530010  RH  073%=      5-min Rain = 0
KHO1 220926Z 26003KT 05/01 A2972 RMK A01 T00530010  RH  074%=      5-min Rain = 0
KHO1 220927Z 24003KT 05/01 A2972 RMK A01 T00520010  RH  074%=      5-min Rain = 0
KHO1 220928Z 21003KT 05/01 A2972 RMK A01 T00520010  RH  074%=      5-min Rain = 0
KHO1 220929Z 21003KT 05/01 A2972 RMK A01 T00510009  RH  074%=      5-min Rain = 0
KHO1 220930Z 21004KT 05/01 A2972 RMK A01 T00510009  RH  074%=      5-min Rain = 0
KHO1 220931Z 20004KT 05/01 A2972 RMK A01 T00510011  RH  075%=      5-min Rain = 0
KHO1 220932Z 21003KT 05/01 A2972 RMK A01 T00510010  RH  075%=      5-min Rain = 0
KHO1 220933Z 23003KT 05/01 A2972 RMK A01 T00500008  RH  074%=      5-min Rain = 0
KHO1 220934Z 24002KT 05/01 A2972 RMK A01 T00500007  RH  074%=      5-min Rain = 0
KHO1 220935Z 25001KT 05/01 A2972 RMK A01 T00490006  RH  074%=      5-min Rain = 0
KHO1 220936Z 29002KT 05/01 A2972 RMK A01 T00480007  RH  075%=      5-min Rain = 0
KHO1 220937Z 30003KT 05/01 A2972 RMK A01 T00480009  RH  076%=      5-min Rain = 0
KHO1 220938Z 30004KT 05/01 A2972 RMK A01 T00490010  RH  076%=      5-min Rain = 0
KHO1 220939Z 30004KT 05/01 A2972 RMK A01 T00490010  RH  076%=      5-min Rain = 0
KHO1 220940Z 33003KT 05/01 A2972 RMK A01 T00490009  RH  075%=      5-min Rain = 0
KHO1 220941Z 34003KT 05/01 A2972 RMK A01 T00490008  RH  075%=      5-min Rain = 0
KHO1 220942Z 34003KT 05/01 A2972 RMK A01 T00480007  RH  075%=      5-min Rain = 0
KHO1 220943Z 33002KT 05/01 A2972 RMK A01 T00470006  RH  074%=      5-min Rain = 0
KHO1 220944Z 30001KT 05/01 A2972 RMK A01 T00460006  RH  075%=      5-min Rain = 0
KHO1 220945Z 29003KT 05/01 A2972 RMK A01 T00470009  RH  076%=      5-min Rain = 0
KHO1 220946Z 28004KT 05/01 A2972 RMK A01 T00480010  RH  077%=      5-min Rain = 0
KHO1 220947Z 23005KT 05/01 A2972 RMK A01 T00480009  RH  076%=      5-min Rain = 0
KHO1 220948Z 22004KT 05/01 A2972 RMK A01 T00490009  RH  075%=      5-min Rain = 0
KHO1 220949Z 22003KT 05/00 A2972 RMK A01 T00470004  RH  074%=      5-min Rain = 0
KHO1 220950Z 25003KT 05/01 A2972 RMK A01 T00460005  RH  075%=      5-min Rain = 0
KHO1 220951Z 27004KT 05/01 A2973 RMK A01 T00450005  RH  075%=      5-min Rain = 0
KHO1 220952Z 26004KT 05/01 A2973 RMK A01 T00450007  RH  076%=      5-min Rain = 0
KHO1 220953Z 24004KT 05/01 A2972 RMK A01 T00450008  RH  077%=      5-min Rain = 0
KHO1 220954Z 22005KT 05/01 A2972 RMK A01 T00460009  RH  077%=      5-min Rain = 0
KHO1 220955Z 20005KT 05/01 A2972 RMK A01 T00460008  RH  076%=      5-min Rain = 0
KHO1 220956Z 20005KT 05/01 A2972 RMK A01 T00450006  RH  076%=      5-min Rain = 0
KHO1 220957Z 21005KT 04/00 A2973 RMK A01 T00430004  RH  075%=      5-min Rain = 0
KHO1 220958Z 22004KT 04/00 A2973 RMK A01 T00420002  RH  076%=      5-min Rain = 0
KHO1 220959Z 25004KT 04/00 A2973 RMK A01 T00410002  RH  076%=      5-min Rain = 0
KHO1 221000Z 27004KT 04/00 A2973 RMK A01 T00400004  RH  077%=      5-min Rain = 0
KHO1 221001Z 25004KT 04/01 A2973 RMK A01 T00410006  RH  078%=      5-min Rain = 0
KHO1 221002Z 22004KT 04/01 A2973 RMK A01 T00420007  RH  078%=      5-min Rain = 0
KHO1 221003Z 21005KT 04/01 A2973 RMK A01 T00420007  RH  078%=      5-min Rain = 0
KHO1 221004Z 20005KT 04/01 A2972 RMK A01 T00430007  RH  078%=      5-min Rain = 0
KHO1 221005Z 20005KT 04/01 A2972 RMK A01 T00420005  RH  077%=      5-min Rain = 0
KHO1 221006Z 21003KT 04/00 A2972 RMK A01 T00410004  RH  077%=      5-min Rain = 0
KHO1 221007Z 25003KT 04/00 A2972 RMK A01 T00400003  RH  077%=      5-min Rain = 0
KHO1 221008Z 26003KT 04/00 A2972 RMK A01 T00390004  RH  078%=      5-min Rain = 0
KHO1 221009Z 24003KT 04/00 A2972 RMK A01 T00390004  RH  078%=      5-min Rain = 0
KHO1 221010Z 22003KT 04/01 A2972 RMK A01 T00400005  RH  078%=      5-min Rain = 0
KHO1 221011Z 20004KT 04/01 A2972 RMK A01 T00400006  RH  078%=      5-min Rain = 0
KHO1 221012Z 22003KT 04/01 A2972 RMK A01 T00410007  RH  079%=      5-min Rain = 0
KHO1 221013Z 25003KT 04/01 A2972 RMK A01 T00410006  RH  078%=      5-min Rain = 0
KHO1 221014Z 26003KT 04/01 A2972 RMK A01 T00400006  RH  078%=      5-min Rain = 0
KHO1 221015Z 23004KT 04/01 A2972 RMK A01 T00400006  RH  078%=      5-min Rain = 0
KHO1 221016Z 22004KT 04/01 A2972 RMK A01 T00400005  RH  078%=      5-min Rain = 0
KHO1 221017Z 25003KT 04/01 A2972 RMK A01 T00400005  RH  078%=      5-min Rain = 0
KHO1 221018Z 25003KT 04/01 A2972 RMK A01 T00390006  RH  079%=      5-min Rain = 0
KHO1 221019Z 23003KT 04/01 A2972 RMK A01 T00390005  RH  079%=      5-min Rain = 0
KHO1 221020Z 21003KT 04/00 A2972 RMK A01 T00390004  RH  078%=      5-min Rain = 0
KHO1 221021Z 20003KT 04/00 A2972 RMK A01 T00380003  RH  078%=      5-min Rain = 0
KHO1 221022Z 21003KT 04/00 A2972 RMK A01 T00370002  RH  078%=      5-min Rain = 0
KHO1 221023Z 24003KT 04/00 A2972 RMK A01 T00360000  RH  077%=      5-min Rain = 0
KHO1 221024Z 26003KT 03/M00 A2972 RMK A01 T00341001  RH  078%=      5-min Rain = 0
KHO1 221025Z 25003KT 03/00 A2972 RMK A01 T00340001  RH  079%=      5-min Rain = 0
KHO1 221026Z 23003KT 03/00 A2972 RMK A01 T00340002  RH  079%=      5-min Rain = 0
KHO1 221027Z 22004KT 04/00 A2972 RMK A01 T00350002  RH  079%=      5-min Rain = 0
KHO1 221028Z 23003KT 04/00 A2972 RMK A01 T00350002  RH  079%=      5-min Rain = 0
KHO1 221029Z 24004KT 04/00 A2972 RMK A01 T00350003  RH  080%=      5-min Rain = 0
KHO1 221030Z 23004KT 04/00 A2972 RMK A01 T00350003  RH  080%=      5-min Rain = 0
KHO1 221031Z 30006G13KT 04/00 A2972 RMK A01 T00350003  RH  079%=      5-min Rain = 0
KHO1 221032Z 34016KT 03/00 A2973 RMK A01 T00340002  RH  080%=      5-min Rain = 0
KHO1 221033Z 34013KT 04/00 A2973 RMK A01 T00350002  RH  079%=      5-min Rain = 0
KHO1 221034Z 30005G10KT 04/00 A2973 RMK A01 T00350003  RH  079%=      5-min Rain = 0
KHO1 221035Z 26004KT 04/00 A2972 RMK A01 T00360003  RH  079%=      5-min Rain = 0
KHO1 221036Z 32006KT 04/01 A2973 RMK A01 T00380005  RH  079%=      5-min Rain = 0
KHO1 221037Z 32011KT 04/01 A2973 RMK A01 T00410010  RH  080%=      5-min Rain = 0
KHO1 221038Z 33009KT 05/01 A2974 RMK A01 T00450010  RH  078%=      5-min Rain = 0
KHO1 221039Z 33007KT 05/01 A2973 RMK A01 T00480010  RH  076%=      5-min Rain = 0
KHO1 221040Z 33007KT 05/01 A2973 RMK A01 T00490009  RH  076%=      5-min Rain = 0
KHO1 221041Z 31005KT 05/01 A2973 RMK A01 T00500010  RH  075%=      5-min Rain = 0
KHO1 221042Z 30004KT 05/01 A2973 RMK A01 T00510009  RH  075%=      5-min Rain = 0
KHO1 221043Z 30005KT 05/01 A2973 RMK A01 T00510009  RH  074%=      5-min Rain = 0
KHO1 221044Z 29005KT 05/01 A2973 RMK A01 T00520009  RH  074%=      5-min Rain = 0
KHO1 221045Z 30005KT 05/01 A2973 RMK A01 T00530008  RH  073%=      5-min Rain = 0
KHO1 221046Z 30005KT 05/01 A2974 RMK A01 T00530008  RH  072%=      5-min Rain = 0
KHO1 221047Z 30004KT 05/01 A2973 RMK A01 T00530008  RH  072%=      5-min Rain = 0
KHO1 221048Z 33004KT 05/01 A2973 RMK A01 T00530007  RH  072%=      5-min Rain = 0
KHO1 221049Z 33005KT 05/01 A2973 RMK A01 T00520006  RH  072%=      5-min Rain = 0
KHO1 221050Z 32004KT 05/01 A2973 RMK A01 T00510007  RH  073%=      5-min Rain = 0
KHO1 221051Z 32004KT 05/01 A2973 RMK A01 T00520007  RH  073%=      5-min Rain = 0
KHO1 221052Z 32004KT 05/01 A2973 RMK A01 T00520007  RH  073%=      5-min Rain = 0
KHO1 221053Z 32005KT 05/01 A2974 RMK A01 T00530007  RH  072%=      5-min Rain = 0
KHO1 221054Z 31005KT 05/01 A2974 RMK A01 T00530007  RH  072%=      5-min Rain = 0
KHO1 221055Z 31004KT 05/01 A2973 RMK A01 T00530006  RH  072%=      5-min Rain = 0
KHO1 221056Z 31004KT 05/01 A2974 RMK A01 T00530006  RH  072%=      5-min Rain = 0
KHO1 221057Z 30003KT 05/01 A2974 RMK A01 T00520006  RH  072%=      5-min Rain = 0
KHO1 221058Z 30003KT 05/01 A2974 RMK A01 T00520005  RH  072%=      5-min Rain = 0
KHO1 221059Z 31003KT 05/01 A2974 RMK A01 T00520005  RH  072%=      5-min Rain = 0
KHO1 221100Z 33003KT 05/01 A2974 RMK A01 T00520005  RH  072%=      5-min Rain = 0
KHO1 221101Z 32003KT 05/00 A2974 RMK A01 T00510004  RH  071%=      5-min Rain = 0
KHO1 221102Z 33003KT 05/00 A2974 RMK A01 T00510003  RH  071%=      5-min Rain = 0
KHO1 221103Z 33003KT 05/00 A2974 RMK A01 T00500003  RH  071%=      5-min Rain = 0
KHO1 221104Z 34003KT 05/00 A2974 RMK A01 T00500003  RH  071%=      5-min Rain = 0
KHO1 221105Z 35004KT 05/00 A2974 RMK A01 T00500002  RH  071%=      5-min Rain = 0
KHO1 221106Z 00004KT 05/00 A2974 RMK A01 T00500002  RH  071%=      5-min Rain = 0
KHO1 221107Z 01004KT 05/00 A2974 RMK A01 T00500001  RH  071%=      5-min Rain = 0
KHO1 221108Z 36004KT 05/M00 A2974 RMK A01 T00491001  RH  070%=      5-min Rain = 0
KHO1 221109Z 34003KT 05/M00 A2974 RMK A01 T00481002  RH  070%=      5-min Rain = 0
KHO1 221110Z 31003KT 05/M00 A2974 RMK A01 T00471002  RH  070%=      5-min Rain = 0
KHO1 221111Z 28004KT 05/M00 A2974 RMK A01 T00471004  RH  070%=      5-min Rain = 0
KHO1 221112Z 26004KT 05/M01 A2974 RMK A01 T00451005  RH  070%=      5-min Rain = 0
KHO1 221113Z 27004KT 04/M01 A2974 RMK A01 T00421005  RH  071%=      5-min Rain = 0
KHO1 221114Z 29004KT 04/M01 A2974 RMK A01 T00411005  RH  072%=      5-min Rain = 0
KHO1 221115Z 30005KT 04/M01 A2974 RMK A01 T00411007  RH  071%=      5-min Rain = 0
KHO1 221116Z 32005KT 04/M01 A2974 RMK A01 T00401009  RH  070%=      5-min Rain = 0
KHO1 221117Z 33005KT 04/M01 A2974 RMK A01 T00401010  RH  070%=      5-min Rain = 0
KHO1 221118Z 34005KT 04/M01 A2974 RMK A01 T00401011  RH  069%=      5-min Rain = 0
KHO1 221119Z 35005KT 04/M01 A2974 RMK A01 T00401011  RH  070%=      5-min Rain = 0
KHO1 221120Z 35006KT 04/M01 A2974 RMK A01 T00391011  RH  070%=      5-min Rain = 0
KHO1 221121Z 35006KT 04/M01 A2974 RMK A01 T00391011  RH  070%=      5-min Rain = 0
KHO1 221122Z 35006KT 04/M01 A2974 RMK A01 T00381012  RH  070%=      5-min Rain = 0
KHO1 221123Z 35005KT 04/M01 A2974 RMK A01 T00381012  RH  070%=      5-min Rain = 0
KHO1 221124Z 35005KT 04/M01 A2974 RMK A01 T00381012  RH  070%=      5-min Rain = 0
KHO1 221125Z 35005KT 04/M01 A2975 RMK A01 T00371013  RH  070%=      5-min Rain = 0
KHO1 221126Z 34005KT 04/M01 A2975 RMK A01 T00371013  RH  070%=      5-min Rain = 0
KHO1 221127Z 34005KT 04/M01 A2975 RMK A01 T00361014  RH  070%=      5-min Rain = 0
KHO1 221128Z 33004KT 04/M01 A2975 RMK A01 T00361014  RH  069%=      5-min Rain = 0
KHO1 221129Z 32004KT 04/M02 A2975 RMK A01 T00381015  RH  068%=      5-min Rain = 0
KHO1 221130Z 32005KT 04/M02 A2975 RMK A01 T00391015  RH  068%=      5-min Rain = 0
KHO1 221131Z 32004KT 04/M02 A2975 RMK A01 T00391015  RH  068%=      5-min Rain = 0
KHO1 221132Z 32004KT 04/M02 A2975 RMK A01 T00391016  RH  067%=      5-min Rain = 0
KHO1 221133Z 32004KT 04/M02 A2975 RMK A01 T00391016  RH  068%=      5-min Rain = 0
KHO1 221134Z 33004KT 04/M02 A2975 RMK A01 T00391016  RH  067%=      5-min Rain = 0
KHO1 221135Z 33004KT 04/M02 A2975 RMK A01 T00381017  RH  067%=      5-min Rain = 0
KHO1 221136Z 33004KT 04/M02 A2975 RMK A01 T00381018  RH  067%=      5-min Rain = 0
KHO1 221137Z 33004KT 04/M02 A2975 RMK A01 T00381018  RH  067%=      5-min Rain = 0
KHO1 221138Z 33005KT 04/M02 A2975 RMK A01 T00381019  RH  066%=      5-min Rain = 0
KHO1 221139Z 33005KT 04/M02 A2975 RMK A01 T00381019  RH  066%=      5-min Rain = 0
KHO1 221140Z 33005KT 04/M02 A2975 RMK A01 T00371020  RH  066%=      5-min Rain = 0
KHO1 221141Z 34005KT 04/M02 A2975 RMK A01 T00371020  RH  066%=      5-min Rain = 0
KHO1 221142Z 35005KT 04/M02 A2975 RMK A01 T00361020  RH  067%=      5-min Rain = 0
KHO1 221143Z 35005KT 04/M02 A2975 RMK A01 T00351020  RH  067%=      5-min Rain = 0
KHO1 221144Z 35005KT 03/M02 A2975 RMK A01 T00341020  RH  068%=      5-min Rain = 0
KHO1 221145Z 33006KT 03/M02 A2975 RMK A01 T00331021  RH  068%=      5-min Rain = 0
KHO1 221146Z 32007KT 03/M02 A2976 RMK A01 T00331021  RH  068%=      5-min Rain = 0
KHO1 221147Z 34006KT 03/M02 A2976 RMK A01 T00321021  RH  068%=      5-min Rain = 0
KHO1 221148Z 36007KT 03/M02 A2975 RMK A01 T00321022  RH  068%=      5-min Rain = 0
KHO1 221149Z 00007KT 03/M02 A2975 RMK A01 T00331022  RH  067%=      5-min Rain = 0
KHO1 221150Z 01007KT 03/M02 A2975 RMK A01 T00331023  RH  067%=      5-min Rain = 0
KHO1 221151Z 01007KT 03/M02 A2975 RMK A01 T00341023  RH  067%=      5-min Rain = 0
KHO1 221152Z 36007KT 03/M02 A2975 RMK A01 T00341023  RH  067%=      5-min Rain = 0
KHO1 221153Z 00006KT 04/M02 A2975 RMK A01 T00351024  RH  066%=      5-min Rain = 0
KHO1 221154Z 35006KT 04/M02 A2975 RMK A01 T00371024  RH  065%=      5-min Rain = 0
KHO1 221155Z 34007KT 04/M02 A2975 RMK A01 T00381024  RH  064%=      5-min Rain = 0
KHO1 221156Z 32006KT 04/M02 A2975 RMK A01 T00391024  RH  064%=      5-min Rain = 0
KHO1 221157Z 32007KT 04/M03 A2975 RMK A01 T00371025  RH  064%=      5-min Rain = 0
KHO1 221158Z 33006KT 04/M03 A2975 RMK A01 T00361026  RH  064%=      5-min Rain = 0
KHO1 221159Z 34005KT 04/M03 A2975 RMK A01 T00371026  RH  063%=      5-min Rain = 0
KHO1 221200Z 33005KT 04/M03 A2975 RMK A01 T00381026  RH  063%=      5-min Rain = 0
KHO1 221201Z 33006KT 04/M03 A2975 RMK A01 T00391026  RH  063%=      5-min Rain = 0
KHO1 221202Z 32006KT 04/M03 A2976 RMK A01 T00391026  RH  062%=      5-min Rain = 0
KHO1 221203Z 32006KT 04/M03 A2975 RMK A01 T00391026  RH  062%=      5-min Rain = 0
KHO1 221204Z 32005KT 04/M03 A2975 RMK A01 T00381027  RH  063%=      5-min Rain = 0
KHO1 221205Z 32006KT 04/M03 A2975 RMK A01 T00371027  RH  063%=      5-min Rain = 0
KHO1 221206Z 33006KT 04/M03 A2976 RMK A01 T00361027  RH  063%=      5-min Rain = 0
KHO1 221207Z 33006KT 04/M03 A2976 RMK A01 T00361027  RH  063%=      5-min Rain = 0
KHO1 221208Z 34006KT 04/M03 A2976 RMK A01 T00371027  RH  063%=      5-min Rain = 0
KHO1 221209Z 34006KT 04/M03 A2976 RMK A01 T00371027  RH  063%=      5-min Rain = 0
KHO1 221210Z 35005KT 04/M03 A2976 RMK A01 T00361027  RH  064%=      5-min Rain = 0
KHO1 221211Z 35005KT 04/M03 A2976 RMK A01 T00351027  RH  064%=      5-min Rain = 0
KHO1 221212Z 36005KT 04/M03 A2976 RMK A01 T00351027  RH  064%=      5-min Rain = 0
KHO1 221213Z 00006KT 04/M03 A2976 RMK A01 T00351027  RH  064%=      5-min Rain = 0
KHO1 221214Z 01006KT 04/M03 A2975 RMK A01 T00351027  RH  064%=      5-min Rain = 0
KHO1 221215Z 01006KT 04/M03 A2976 RMK A01 T00361026  RH  064%=      5-min Rain = 0
KHO1 221216Z 36006KT 04/M03 A2976 RMK A01 T00361026  RH  064%=      5-min Rain = 0
KHO1 221217Z 35005KT 04/M03 A2976 RMK A01 T00371026  RH  063%=      5-min Rain = 0
KHO1 221218Z 33004KT 04/M03 A2976 RMK A01 T00371026  RH  063%=      5-min Rain = 0
KHO1 221219Z 32004KT 04/M03 A2976 RMK A01 T00371027  RH  063%=      5-min Rain = 0
KHO1 221220Z 30003KT 04/M03 A2976 RMK A01 T00371027  RH  063%=      5-min Rain = 0
KHO1 221221Z 30004KT 04/M03 A2976 RMK A01 T00351027  RH  064%=      5-min Rain = 0
KHO1 221222Z 32005KT 03/M03 A2976 RMK A01 T00341027  RH  064%=      5-min Rain = 0
KHO1 221223Z 34006KT 03/M03 A2976 RMK A01 T00341027  RH  064%=      5-min Rain = 0
KHO1 221224Z 36007KT 04/M03 A2976 RMK A01 T00351027  RH  064%=      5-min Rain = 0
KHO1 221225Z 01007KT 04/M03 A2976 RMK A01 T00361027  RH  064%=      5-min Rain = 0
KHO1 221226Z 01008KT 04/M03 A2976 RMK A01 T00371027  RH  063%=      5-min Rain = 0
KHO1 221227Z 00007KT 04/M03 A2976 RMK A01 T00381027  RH  063%=      5-min Rain = 0
KHO1 221228Z 36008KT 04/M03 A2976 RMK A01 T00381026  RH  063%=      5-min Rain = 0
KHO1 221229Z 00008KT 04/M03 A2976 RMK A01 T00401026  RH  062%=      5-min Rain = 0
KHO1 221230Z 00008KT 04/M03 A2976 RMK A01 T00411026  RH  061%=      5-min Rain = 0
KHO1 221231Z 00007KT 04/M03 A2976 RMK A01 T00431026  RH  061%=      5-min Rain = 0
KHO1 221232Z 36007KT 04/M03 A2976 RMK A01 T00441026  RH  060%=      5-min Rain = 0
KHO1 221233Z 36007KT 05/M03 A2976 RMK A01 T00451027  RH  060%=      5-min Rain = 0
KHO1 221234Z 35007KT 05/M03 A2976 RMK A01 T00451027  RH  060%=      5-min Rain = 0
KHO1 221235Z 34006KT 04/M03 A2977 RMK A01 T00441027  RH  060%=      5-min Rain = 0
KHO1 221236Z 34006KT 04/M03 A2977 RMK A01 T00431027  RH  060%=      5-min Rain = 0
KHO1 221237Z 35008KT 04/M03 A2977 RMK A01 T00431028  RH  060%=      5-min Rain = 0
KHO1 221238Z 35007KT 04/M03 A2977 RMK A01 T00441028  RH  059%=      5-min Rain = 0
KHO1 221239Z 35007KT 05/M03 A2977 RMK A01 T00461028  RH  059%=      5-min Rain = 0
KHO1 221240Z 35007KT 05/M03 A2977 RMK A01 T00461028  RH  059%=      5-min Rain = 0
KHO1 221241Z 35007KT 05/M03 A2977 RMK A01 T00451028  RH  059%=      5-min Rain = 0
KHO1 221242Z 34007KT 05/M03 A2977 RMK A01 T00451028  RH  059%=      5-min Rain = 0
KHO1 221243Z 35007KT 04/M03 A2977 RMK A01 T00441028  RH  059%=      5-min Rain = 0
KHO1 221244Z 34007KT 04/M03 A2977 RMK A01 T00441028  RH  060%=      5-min Rain = 0
KHO1 221245Z 35008KT 04/M03 A2977 RMK A01 T00431028  RH  060%=      5-min Rain = 0
KHO1 221246Z 36007KT 04/M03 A2977 RMK A01 T00421029  RH  060%=      5-min Rain = 0
KHO1 221247Z 36007KT 04/M03 A2977 RMK A01 T00431029  RH  060%=      5-min Rain = 0
KHO1 221248Z 35007KT 04/M03 A2977 RMK A01 T00431029  RH  060%=      5-min Rain = 0
KHO1 221249Z 35007KT 04/M03 A2977 RMK A01 T00421029  RH  060%=      5-min Rain = 0
KHO1 221250Z 34008KT 04/M03 A2977 RMK A01 T00421029  RH  060%=      5-min Rain = 0
KHO1 221251Z 34008KT 04/M03 A2977 RMK A01 T00421030  RH  060%=      5-min Rain = 0
KHO1 221252Z 34006KT 04/M03 A2977 RMK A01 T00421030  RH  060%=      5-min Rain = 0
KHO1 221253Z 34006KT 04/M03 A2977 RMK A01 T00411029  RH  060%=      5-min Rain = 0
KHO1 221254Z 35006KT 04/M03 A2977 RMK A01 T00401030  RH  060%=      5-min Rain = 0
KHO1 221255Z 35005KT 04/M03 A2977 RMK A01 T00391030  RH  061%=      5-min Rain = 0
KHO1 221256Z 35005KT 04/M03 A2978 RMK A01 T00381030  RH  061%=      5-min Rain = 0
KHO1 221257Z 35005KT 04/M03 A2978 RMK A01 T00371030  RH  061%=      5-min Rain = 0
KHO1 221258Z 35005KT 04/M03 A2978 RMK A01 T00371030  RH  062%=      5-min Rain = 0
KHO1 221259Z 35006KT 04/M03 A2978 RMK A01 T00361031  RH  061%=      5-min Rain = 0
KHO1 221300Z 35005KT 04/M03 A2978 RMK A01 T00371031  RH  061%=      5-min Rain = 0
KHO1 221301Z 36005KT 04/M03 A2978 RMK A01 T00371031  RH  061%=      5-min Rain = 0
KHO1 221302Z 36005KT 04/M03 A2978 RMK A01 T00371031  RH  061%=      5-min Rain = 0
KHO1 221303Z 00005KT 04/M03 A2978 RMK A01 T00371031  RH  061%=      5-min Rain = 0
KHO1 221304Z 01005KT 04/M03 A2978 RMK A01 T00371032  RH  061%=      5-min Rain = 0
KHO1 221305Z 01005KT 04/M03 A2978 RMK A01 T00371032  RH  061%=      5-min Rain = 0
KHO1 221306Z 35004KT 04/M03 A2978 RMK A01 T00361032  RH  061%=      5-min Rain = 0
KHO1 221307Z 35004KT 04/M03 A2978 RMK A01 T00361032  RH  061%=      5-min Rain = 0
KHO1 221308Z 00004KT 04/M03 A2978 RMK A01 T00351032  RH  061%=      5-min Rain = 0
KHO1 221309Z 01005KT 04/M03 A2978 RMK A01 T00351032  RH  061%=      5-min Rain = 0
KHO1 221310Z 01005KT 04/M03 A2978 RMK A01 T00351033  RH  061%=      5-min Rain = 0
KHO1 221311Z 01005KT 04/M03 A2978 RMK A01 T00351033  RH  061%=      5-min Rain = 0
KHO1 221312Z 01005KT 04/M03 A2978 RMK A01 T00351033  RH  061%=      5-min Rain = 0
KHO1 221313Z 02005KT 04/M03 A2977 RMK A01 T00351033  RH  061%=      5-min Rain = 0
KHO1 221314Z 02004KT 04/M03 A2978 RMK A01 T00351033  RH  061%=      5-min Rain = 0
KHO1 221315Z 01003KT 04/M03 A2978 RMK A01 T00351033  RH  061%=      5-min Rain = 0
KHO1 221316Z 32004KT 03/M03 A2978 RMK A01 T00341033  RH  061%=      5-min Rain = 0
KHO1 221317Z 31004KT 03/M03 A2979 RMK A01 T00341033  RH  061%=      5-min Rain = 0
KHO1 221318Z 35005KT 03/M03 A2978 RMK A01 T00341033  RH  061%=      5-min Rain = 0
KHO1 221319Z 01006KT 04/M03 A2978 RMK A01 T00351033  RH  061%=      5-min Rain = 0
KHO1 221320Z 00005KT 04/M03 A2978 RMK A01 T00351033  RH  061%=      5-min Rain = 0
KHO1 221321Z 35005KT 04/M03 A2978 RMK A01 T00351033  RH  061%=      5-min Rain = 0
KHO1 221322Z 00004KT 03/M03 A2978 RMK A01 T00341033  RH  061%=      5-min Rain = 0
KHO1 221323Z 01006KT 03/M03 A2978 RMK A01 T00341033  RH  062%=      5-min Rain = 0
KHO1 221324Z 00006KT 03/M03 A2978 RMK A01 T00341033  RH  061%=      5-min Rain = 0
KHO1 221325Z 35005KT 03/M03 A2978 RMK A01 T00341033  RH  061%=      5-min Rain = 0
KHO1 221326Z 34005KT 04/M03 A2978 RMK A01 T00351033  RH  061%=      5-min Rain = 0
KHO1 221327Z 34004KT 04/M03 A2978 RMK A01 T00351034  RH  061%=      5-min Rain = 0
KHO1 221328Z 34005KT 03/M03 A2978 RMK A01 T00341033  RH  061%=      5-min Rain = 0
KHO1 221329Z 34005KT 04/M03 A2978 RMK A01 T00351034  RH  061%=      5-min Rain = 0
KHO1 221330Z 34005KT 04/M03 A2978 RMK A01 T00351034  RH  061%=      5-min Rain = 0
KHO1 221331Z 35004KT 03/M03 A2978 RMK A01 T00341034  RH  061%=      5-min Rain = 0
KHO1 221332Z 35004KT 03/M03 A2978 RMK A01 T00331034  RH  062%=      5-min Rain = 0
KHO1 221333Z 35004KT 03/M03 A2978 RMK A01 T00321034  RH  062%=      5-min Rain = 0
KHO1 221334Z 35004KT 03/M03 A2978 RMK A01 T00311034  RH  062%=      5-min Rain = 0
KHO1 221335Z 35004KT 03/M03 A2978 RMK A01 T00301034  RH  063%=      5-min Rain = 0
KHO1 221336Z 35004KT 03/M03 A2978 RMK A01 T00291034  RH  063%=      5-min Rain = 0
KHO1 221337Z 35004KT 03/M03 A2978 RMK A01 T00291034  RH  063%=      5-min Rain = 0
KHO1 221338Z 35003KT 03/M03 A2978 RMK A01 T00291034  RH  063%=      5-min Rain = 0
KHO1 221339Z 35004KT 03/M03 A2978 RMK A01 T00281034  RH  063%=      5-min Rain = 0
KHO1 221340Z 35004KT 03/M03 A2978 RMK A01 T00281034  RH  063%=      5-min Rain = 0
KHO1 221341Z 35004KT 03/M03 A2978 RMK A01 T00281034  RH  063%=      5-min Rain = 0
KHO1 221342Z 35003KT 03/M03 A2978 RMK A01 T00281034  RH  063%=      5-min Rain = 0
KHO1 221343Z 35004KT 03/M04 A2978 RMK A01 T00281035  RH  063%=      5-min Rain = 0
KHO1 221344Z 34003KT 03/M04 A2979 RMK A01 T00281035  RH  063%=      5-min Rain = 0
KHO1 221345Z 35004KT 03/M03 A2979 RMK A01 T00291034  RH  063%=      5-min Rain = 0
KHO1 221346Z 34004KT 03/M03 A2979 RMK A01 T00291034  RH  063%=      5-min Rain = 0
KHO1 221347Z 34004KT 03/M03 A2979 RMK A01 T00291034  RH  063%=      5-min Rain = 0
KHO1 221348Z 34004KT 03/M03 A2979 RMK A01 T00291034  RH  063%=      5-min Rain = 0
KHO1 221349Z 34004KT 03/M03 A2979 RMK A01 T00291034  RH  063%=      5-min Rain = 0
KHO1 221350Z 34004KT 03/M03 A2979 RMK A01 T00281034  RH  064%=      5-min Rain = 0
KHO1 221351Z 34004KT 03/M03 A298 RMK A01 T00281034  RH  064%=      5-min Rain = 0
KHO1 221352Z 33004KT 03/M03 A298 RMK A01 T00281034  RH  064%=      5-min Rain = 0
KHO1 221353Z 33004KT 03/M03 A298 RMK A01 T00281034  RH  064%=      5-min Rain = 0
KHO1 221354Z 34004KT 03/M03 A298 RMK A01 T00281034  RH  064%=      5-min Rain = 0
KHO1 221355Z 34005KT 03/M03 A298 RMK A01 T00281034  RH  064%=      5-min Rain = 0
KHO1 221356Z 33005KT 03/M04 A298 RMK A01 T00271035  RH  064%=      5-min Rain = 0
KHO1 221357Z 33005KT 03/M03 A298 RMK A01 T00251034  RH  065%=      5-min Rain = 0
KHO1 221358Z 33005KT 03/M03 A298 RMK A01 T00251034  RH  065%=      5-min Rain = 0
KHO1 221359Z 32005KT 03/M03 A298 RMK A01 T00251034  RH  065%=      5-min Rain = 0
KHO1 221400Z 33005KT 03/M03 A2981 RMK A01 T00251034  RH  065%=      5-min Rain = 0
KHO1 221401Z 33005KT 03/M03 A2981 RMK A01 T00251034  RH  065%=      5-min Rain = 0
KHO1 221402Z 33005KT 03/M03 A2981 RMK A01 T00251034  RH  065%=      5-min Rain = 0
KHO1 221403Z 33004KT 03/M03 A2981 RMK A01 T00251034  RH  065%=      5-min Rain = 0
KHO1 221404Z 33004KT 03/M03 A2981 RMK A01 T00251034  RH  065%=      5-min Rain = 0
KHO1 221405Z 33004KT 03/M03 A2981 RMK A01 T00251034  RH  065%=      5-min Rain = 0
KHO1 221406Z 32004KT 02/M03 A2981 RMK A01 T00241034  RH  065%=      5-min Rain = 0
KHO1 221407Z 32004KT 02/M03 A2981 RMK A01 T00241034  RH  065%=      5-min Rain = 0
KHO1 221408Z 32004KT 02/M03 A2981 RMK A01 T00231034  RH  066%=      5-min Rain = 0
KHO1 221409Z 32004KT 02/M03 A2981 RMK A01 T00231034  RH  066%=      5-min Rain = 0
KHO1 221410Z 32004KT 02/M03 A2981 RMK A01 T00231034  RH  066%=      5-min Rain = 0
KHO1 221411Z 32005KT 02/M03 A2981 RMK A01 T00231034  RH  066%=      5-min Rain = 0
KHO1 221412Z 32005KT 02/M03 A2981 RMK A01 T00231034  RH  066%=      5-min Rain = 0
KHO1 221413Z 32005KT 02/M04 A2981 RMK A01 T00241035  RH  065%=      5-min Rain = 0
KHO1 221414Z 32004KT 02/M03 A2981 RMK A01 T00241034  RH  065%=      5-min Rain = 0
KHO1 221415Z 32005KT 02/M03 A2981 RMK A01 T00241034  RH  065%=      5-min Rain = 0
KHO1 221416Z 32005KT 02/M03 A2981 RMK A01 T00241034  RH  065%=      5-min Rain = 0
KHO1 221417Z 32005KT 03/M03 A2981 RMK A01 T00251034  RH  065%=      5-min Rain = 0
KHO1 221418Z 32006KT 03/M03 A2981 RMK A01 T00251034  RH  065%=      5-min Rain = 0
KHO1 221419Z 33006KT 03/M04 A2981 RMK A01 T00261035  RH  064%=      5-min Rain = 0
KHO1 221420Z 33005KT 03/M03 A2981 RMK A01 T00271034  RH  064%=      5-min Rain = 0
KHO1 221421Z 33006KT 03/M03 A2981 RMK A01 T00261034  RH  065%=      5-min Rain = 0
KHO1 221422Z 33006KT 02/M04 A2981 RMK A01 T00241035  RH  065%=      5-min Rain = 0
KHO1 221423Z 32006KT 02/M04 A2981 RMK A01 T00231035  RH  066%=      5-min Rain = 0
KHO1 221424Z 32006KT 02/M03 A2982 RMK A01 T00241034  RH  065%=      5-min Rain = 0
KHO1 221425Z 32005KT 02/M03 A2982 RMK A01 T00241034  RH  065%=      5-min Rain = 0
KHO1 221426Z 31005KT 02/M03 A2982 RMK A01 T00241034  RH  065%=      5-min Rain = 0
KHO1 221427Z 31005KT 03/M03 A2982 RMK A01 T00251034  RH  065%=      5-min Rain = 0
KHO1 221428Z 31005KT 03/M03 A2982 RMK A01 T00251034  RH  065%=      5-min Rain = 0
KHO1 221429Z 32005KT 03/M03 A2982 RMK A01 T00261033  RH  065%=      5-min Rain = 0
KHO1 221430Z 31005KT 03/M03 A2982 RMK A01 T00261033  RH  065%=      5-min Rain = 0
KHO1 221431Z 32005KT 03/M03 A2982 RMK A01 T00281033  RH  064%=      5-min Rain = 0
KHO1 221432Z 32005KT 03/M03 A2982 RMK A01 T00291031  RH  064%=      5-min Rain = 0
KHO1 221433Z 32005KT 03/M03 A2982 RMK A01 T00301031  RH  064%=      5-min Rain = 0
KHO1 221434Z 32005KT 03/M03 A2982 RMK A01 T00311032  RH  063%=      5-min Rain = 0
KHO1 221435Z 33005KT 03/M03 A2982 RMK A01 T00321033  RH  063%=      5-min Rain = 0
KHO1 221436Z 33005KT 03/M03 A2982 RMK A01 T00331033  RH  062%=      5-min Rain = 0
KHO1 221437Z 33004KT 03/M03 A2982 RMK A01 T00331032  RH  062%=      5-min Rain = 0
KHO1 221438Z 33005KT 03/M03 A2982 RMK A01 T00341031  RH  062%=      5-min Rain = 0
KHO1 221439Z 32005KT 03/M03 A2982 RMK A01 T00341031  RH  062%=      5-min Rain = 0
KHO1 221440Z 32005KT 03/M03 A2982 RMK A01 T00341033  RH  062%=      5-min Rain = 0
KHO1 221441Z 32005KT 03/M03 A2982 RMK A01 T00341031  RH  062%=      5-min Rain = 0
KHO1 221442Z 32005KT 03/M03 A2982 RMK A01 T00341030  RH  063%=      5-min Rain = 0
KHO1 221443Z 32005KT 04/M03 A2982 RMK A01 T00351031  RH  062%=      5-min Rain = 0
KHO1 221444Z 31005KT 04/M03 A2982 RMK A01 T00351031  RH  062%=      5-min Rain = 0
KHO1 221445Z 32004KT 04/M03 A2982 RMK A01 T00361029  RH  062%=      5-min Rain = 0
KHO1 221446Z 32004KT 04/M03 A2982 RMK A01 T00371029  RH  062%=      5-min Rain = 0
KHO1 221447Z 32005KT 04/M03 A2982 RMK A01 T00371029  RH  062%=      5-min Rain = 0
KHO1 221448Z 32004KT 04/M03 A2982 RMK A01 T00381029  RH  062%=      5-min Rain = 0
KHO1 221449Z 32004KT 04/M03 A2982 RMK A01 T00391029  RH  061%=      5-min Rain = 0
KHO1 221450Z 31005KT 04/M03 A2983 RMK A01 T00391030  RH  061%=      5-min Rain = 0
KHO1 221451Z 30005KT 04/M03 A2983 RMK A01 T00401029  RH  061%=      5-min Rain = 0
KHO1 221452Z 31004KT 04/M03 A2983 RMK A01 T00411029  RH  061%=      5-min Rain = 0
KHO1 221453Z 31004KT 04/M03 A2983 RMK A01 T00421029  RH  060%=      5-min Rain = 0
KHO1 221454Z 31003KT 04/M03 A2983 RMK A01 T00421030  RH  060%=      5-min Rain = 0
KHO1 221455Z 32003KT 04/M03 A2983 RMK A01 T00431028  RH  060%=      5-min Rain = 0
KHO1 221456Z 30003KT 04/M03 A2983 RMK A01 T00431028  RH  060%=      5-min Rain = 0
KHO1 221457Z 30004KT 04/M03 A2983 RMK A01 T00441028  RH  060%=      5-min Rain = 0
KHO1 221458Z 30004KT 05/M03 A2983 RMK A01 T00451028  RH  059%=      5-min Rain = 0
KHO1 221459Z 31004KT 05/M03 A2983 RMK A01 T00461027  RH  059%=      5-min Rain = 0
KHO1 221500Z 31004KT 05/M03 A2983 RMK A01 T00461029  RH  058%=      5-min Rain = 0
KHO1 221501Z 31005KT 05/M03 A2983 RMK A01 T00471029  RH  058%=      5-min Rain = 0
KHO1 221502Z 32005KT 05/M03 A2983 RMK A01 T00471027  RH  058%=      5-min Rain = 0
KHO1 221503Z 32005KT 05/M03 A2983 RMK A01 T00481029  RH  057%=      5-min Rain = 0
KHO1 221504Z 32005KT 05/M03 A2984 RMK A01 T00491030  RH  057%=      5-min Rain = 0
KHO1 221505Z 32004KT 05/M03 A2984 RMK A01 T00491028  RH  057%=      5-min Rain = 0
KHO1 221506Z 32004KT 05/M03 A2983 RMK A01 T00501029  RH  057%=      5-min Rain = 0
KHO1 221507Z 33005KT 05/M03 A2983 RMK A01 T00511029  RH  057%=      5-min Rain = 0
KHO1 221508Z 32005KT 05/M03 A2984 RMK A01 T00511028  RH  057%=      5-min Rain = 0
KHO1 221509Z 32006KT 05/M03 A2984 RMK A01 T00511027  RH  057%=      5-min Rain = 0
KHO1 221510Z 31006KT 05/M03 A2984 RMK A01 T00521027  RH  057%=      5-min Rain = 0
KHO1 221511Z 32007KT 05/M03 A2984 RMK A01 T00521027  RH  056%=      5-min Rain = 0
KHO1 221512Z 31007KT 05/M03 A2984 RMK A01 T00521028  RH  056%=      5-min Rain = 0
KHO1 221513Z 32007KT 05/M03 A2984 RMK A01 T00531027  RH  056%=      5-min Rain = 0
KHO1 221514Z 32007KT 05/M03 A2984 RMK A01 T00531028  RH  056%=      5-min Rain = 0
KHO1 221515Z 31008KT 05/M03 A2984 RMK A01 T00541028  RH  055%=      5-min Rain = 0
KHO1 221516Z 31008KT 05/M03 A2984 RMK A01 T00541028  RH  056%=      5-min Rain = 0
KHO1 221517Z 32007KT 05/M03 A2984 RMK A01 T00541027  RH  056%=      5-min Rain = 0
KHO1 221518Z 32007KT 06/M03 A2984 RMK A01 T00551027  RH  056%=      5-min Rain = 0
KHO1 221519Z 32008KT 06/M03 A2984 RMK A01 T00551029  RH  055%=      5-min Rain = 0
KHO1 221520Z 33008KT 06/M03 A2984 RMK A01 T00561027  RH  055%=      5-min Rain = 0
KHO1 221521Z 32006KT 06/M03 A2984 RMK A01 T00571026  RH  055%=      5-min Rain = 0
KHO1 221522Z 32007KT 06/M03 A2984 RMK A01 T00581026  RH  055%=      5-min Rain = 0
KHO1 221523Z 32009KT 06/M03 A2984 RMK A01 T00591026  RH  054%=      5-min Rain = 0
KHO1 221524Z 32007KT 06/M03 A2984 RMK A01 T00601026  RH  054%=      5-min Rain = 0
KHO1 221525Z 32010KT 06/M03 A2984 RMK A01 T00611029  RH  052%=      5-min Rain = 0
KHO1 221526Z 33009KT 06/M03 A2984 RMK A01 T00601029  RH  053%=      5-min Rain = 0
KHO1 221527Z 33008KT 06/M03 A2984 RMK A01 T00621029  RH  052%=      5-min Rain = 0
KHO1 221528Z 33007KT 06/M03 A2984 RMK A01 T00621030  RH  052%=      5-min Rain = 0
KHO1 221529Z 32008KT 06/M03 A2984 RMK A01 T00621029  RH  052%=      5-min Rain = 0
KHO1 221530Z 33008KT 06/M03 A2984 RMK A01 T00631028  RH  052%=      5-min Rain = 0
KHO1 221531Z 32008KT 06/M03 A2984 RMK A01 T00631030  RH  051%=      5-min Rain = 0
KHO1 221532Z 33007KT 06/M03 A2984 RMK A01 T00631028  RH  052%=      5-min Rain = 0
KHO1 221533Z 33006KT 06/M03 A2984 RMK A01 T00641026  RH  052%=      5-min Rain = 0
KHO1 221534Z 33006KT 07/M03 A2984 RMK A01 T00651027  RH  052%=      5-min Rain = 0
KHO1 221535Z 33006KT 07/M03 A2984 RMK A01 T00661028  RH  051%=      5-min Rain = 0
KHO1 221536Z 32007KT 07/M03 A2984 RMK A01 T00651031  RH  050%=      5-min Rain = 0
KHO1 221537Z 33007KT 06/M03 A2985 RMK A01 T00641032  RH  050%=      5-min Rain = 0
KHO1 221538Z 34006KT 06/M03 A2984 RMK A01 T00631031  RH  051%=      5-min Rain = 0
KHO1 221539Z 35006KT 06/M03 A2984 RMK A01 T00631030  RH  051%=      5-min Rain = 0
KHO1 221540Z 34007KT 06/M03 A2984 RMK A01 T00641030  RH  051%=      5-min Rain = 0
KHO1 221541Z 32006KT 06/M03 A2985 RMK A01 T00641031  RH  051%=      5-min Rain = 0
KHO1 221542Z 33006KT 06/M03 A2985 RMK A01 T00641032  RH  050%=      5-min Rain = 0
KHO1 221543Z 33005KT 06/M03 A2985 RMK A01 T00641031  RH  051%=      5-min Rain = 0
KHO1 221544Z 34006KT 06/M03 A2985 RMK A01 T00641032  RH  050%=      5-min Rain = 0
KHO1 221545Z 34005KT 06/M03 A2985 RMK A01 T00641031  RH  051%=      5-min Rain = 0
KHO1 221546Z 35005KT 07/M03 A2985 RMK A01 T00651030  RH  051%=      5-min Rain = 0
KHO1 221547Z 33005KT 07/M03 A2985 RMK A01 T00651030  RH  051%=      5-min Rain = 0
KHO1 221548Z 33006KT 07/M03 A2985 RMK A01 T00661033  RH  049%=      5-min Rain = 0
KHO1 221549Z 34007KT 07/M03 A2985 RMK A01 T00671033  RH  049%=      5-min Rain = 0
KHO1 221550Z 33008KT 07/M03 A2985 RMK A01 T00691034  RH  048%=      5-min Rain = 0
KHO1 221551Z 33009KT 07/M04 A2985 RMK A01 T00701036  RH  047%=      5-min Rain = 0
KHO1 221552Z 33008KT 07/M04 A2985 RMK A01 T00711039  RH  045%=      5-min Rain = 0
KHO1 221553Z 34008KT 07/M04 A2985 RMK A01 T00721040  RH  045%=      5-min Rain = 0
KHO1 221554Z 34008KT 07/M04 A2986 RMK A01 T00741040  RH  044%=      5-min Rain = 0
KHO1 221555Z 34008KT 07/M04 A2986 RMK A01 T00741041  RH  044%=      5-min Rain = 0
KHO1 221556Z 34008KT 08/M04 A2985 RMK A01 T00751042  RH  043%=      5-min Rain = 0
KHO1 221557Z 34008KT 08/M04 A2985 RMK A01 T00751044  RH  042%=      5-min Rain = 0
KHO1 221558Z 34009KT 08/M05 A2985 RMK A01 T00751046  RH  042%=      5-min Rain = 0
KHO1 221559Z 35008KT 08/M04 A2985 RMK A01 T00761044  RH  042%=      5-min Rain = 0
KHO1 221600Z 34011KT 08/M05 A2985 RMK A01 T00771051  RH  040%=      5-min Rain = 0
KHO1 221601Z 34011KT 08/M05 A2985 RMK A01 T00771053  RH  039%=      5-min Rain = 0
KHO1 221602Z 33008KT 08/M05 A2986 RMK A01 T00781054  RH  039%=      5-min Rain = 0
KHO1 221603Z 33009KT 08/M06 A2986 RMK A01 T00791055  RH  038%=      5-min Rain = 0
KHO1 221604Z 34010KT 08/M06 A2986 RMK A01 T00801056  RH  038%=      5-min Rain = 0
KHO1 221605Z 34012G17KT 08/M06 A2985 RMK A01 T00801061  RH  036%=      5-min Rain = 0
KHO1 221606Z 33013KT 08/M07 A2986 RMK A01 T00801068  RH  034%=      5-min Rain = 0
KHO1 221607Z 33012KT 08/M07 A2985 RMK A01 T00801067  RH  034%=      5-min Rain = 0
KHO1 221608Z 34007KT 08/M06 A2986 RMK A01 T00811062  RH  036%=      5-min Rain = 0
KHO1 221609Z 34008KT 08/M06 A2986 RMK A01 T00821059  RH  036%=      5-min Rain = 0
KHO1 221610Z 35009KT 08/M06 A2986 RMK A01 T00831062  RH  035%=      5-min Rain = 0
KHO1 221611Z 34011KT 08/M07 A2986 RMK A01 T00831066  RH  034%=      5-min Rain = 0
KHO1 221612Z 35010KT 08/M07 A2986 RMK A01 T00841065  RH  034%=      5-min Rain = 0
KHO1 221613Z 35010KT 09/M06 A2986 RMK A01 T00851064  RH  034%=      5-min Rain = 0
KHO1 221614Z 35008KT 09/M07 A2986 RMK A01 T00861065  RH  034%=      5-min Rain = 0
KHO1 221615Z 34007KT 09/M06 A2987 RMK A01 T00861063  RH  034%=      5-min Rain = 0
KHO1 221616Z 33010KT 09/M07 A2987 RMK A01 T00861065  RH  034%=      5-min Rain = 0
KHO1 221617Z 35009KT 09/M06 A2987 RMK A01 T00861064  RH  034%=      5-min Rain = 0
KHO1 221618Z 33011KT 09/M07 A2987 RMK A01 T00851066  RH  034%=      5-min Rain = 0
KHO1 221619Z 34008KT 09/M06 A2987 RMK A01 T00851064  RH  034%=      5-min Rain = 0
KHO1 221620Z 35009KT 09/M06 A2987 RMK A01 T00851064  RH  034%=      5-min Rain = 0
KHO1 221621Z 35008KT 09/M06 A2987 RMK A01 T00851064  RH  034%=      5-min Rain = 0
KHO1 221622Z 35007KT 08/M06 A2987 RMK A01 T00841063  RH  035%=      5-min Rain = 0
KHO1 221623Z 34008KT 08/M06 A2987 RMK A01 T00841062  RH  035%=      5-min Rain = 0
KHO1 221624Z 33008KT 09/M06 A2987 RMK A01 T00851061  RH  035%=      5-min Rain = 0
KHO1 221625Z 34011KT 09/M07 A2987 RMK A01 T00851065  RH  034%=      5-min Rain = 0
KHO1 221626Z 34012KT 08/M07 A2987 RMK A01 T00841069  RH  033%=      5-min Rain = 0
KHO1 221627Z 34012KT 08/M07 A2987 RMK A01 T00841068  RH  033%=      5-min Rain = 0
KHO1 221628Z 34013KT 08/M07 A2987 RMK A01 T00841072  RH  032%=      5-min Rain = 0
KHO1 221629Z 34012KT 08/M07 A2987 RMK A01 T00841069  RH  033%=      5-min Rain = 0
KHO1 221630Z 34012KT 08/M07 A2987 RMK A01 T00841071  RH  033%=      5-min Rain = 0
KHO1 221631Z 34010KT 08/M07 A2987 RMK A01 T00841070  RH  033%=      5-min Rain = 0
KHO1 221632Z 34011KT 08/M07 A2987 RMK A01 T00841071  RH  032%=      5-min Rain = 0
KHO1 221633Z 34011KT 08/M07 A2987 RMK A01 T00841072  RH  032%=      5-min Rain = 0
KHO1 221634Z 34009KT 09/M07 A2987 RMK A01 T00851072  RH  032%=      5-min Rain = 0
KHO1 221635Z 33008KT 09/M07 A2987 RMK A01 T00851073  RH  032%=      5-min Rain = 0
KHO1 221636Z 33009KT 09/M07 A2987 RMK A01 T00851073  RH  032%=      5-min Rain = 0
KHO1 221637Z 33007KT 09/M07 A2987 RMK A01 T00851073  RH  032%=      5-min Rain = 0
KHO1 221638Z 33013KT 09/M08 A2987 RMK A01 T00851077  RH  031%=      5-min Rain = 0
KHO1 221639Z 33012KT 08/M08 A2987 RMK A01 T00841081  RH  030%=      5-min Rain = 0
KHO1 221640Z 34013KT 08/M08 A2987 RMK A01 T00841080  RH  030%=      5-min Rain = 0
KHO1 221641Z 34011KT 09/M08 A2987 RMK A01 T00851077  RH  031%=      5-min Rain = 0
KHO1 221642Z 33010KT 09/M08 A2987 RMK A01 T00851075  RH  031%=      5-min Rain = 0
KHO1 221643Z 34011KT 09/M07 A2987 RMK A01 T00851072  RH  032%=      5-min Rain = 0
KHO1 221644Z 34011KT 09/M07 A2987 RMK A01 T00851072  RH  032%=      5-min Rain = 0
KHO1 221645Z 34013KT 08/M07 A2987 RMK A01 T00841071  RH  032%=      5-min Rain = 0
KHO1 221646Z 34010G15KT 08/M07 A2987 RMK A01 T00831070  RH  033%=      5-min Rain = 0
KHO1 221647Z 34011KT 08/M07 A2987 RMK A01 T00841070  RH  033%=      5-min Rain = 0
KHO1 221648Z 33010KT 08/M07 A2987 RMK A01 T00831072  RH  033%=      5-min Rain = 0
KHO1 221649Z 34010KT 08/M07 A2987 RMK A01 T00831071  RH  033%=      5-min Rain = 0
KHO1 221650Z 34008KT 08/M07 A2988 RMK A01 T00831071  RH  033%=      5-min Rain = 0
KHO1 221651Z 34013KT 08/M08 A2988 RMK A01 T00831076  RH  032%=      5-min Rain = 0
KHO1 221652Z 34012KT 08/M08 A2988 RMK A01 T00831076  RH  032%=      5-min Rain = 0
KHO1 221653Z 34012KT 08/M08 A2988 RMK A01 T00831077  RH  031%=      5-min Rain = 0
KHO1 221654Z 34011KT 08/M08 A2988 RMK A01 T00831081  RH  030%=      5-min Rain = 0
KHO1 221655Z 34011KT 08/M08 A2988 RMK A01 T00831079  RH  031%=      5-min Rain = 0
KHO1 221656Z 34012KT 08/M08 A2988 RMK A01 T00841080  RH  030%=      5-min Rain = 0
KHO1 221657Z 33013KT 08/M08 A2988 RMK A01 T00841084  RH  029%=      5-min Rain = 0
KHO1 221658Z 33013KT 08/M09 A2988 RMK A01 T00841087  RH  029%=      5-min Rain = 0
KHO1 221659Z 34014KT 08/M09 A2988 RMK A01 T00841091  RH  028%=      5-min Rain = 0
KHO1 221700Z 33016G21KT 08/M09 A2988 RMK A01 T00841093  RH  027%=      5-min Rain = 0
KHO1 221701Z 33016KT 08/M10 A2988 RMK A01 T00831096  RH  027%=      5-min Rain = 0
KHO1 221702Z 34016KT 08/M09 A2988 RMK A01 T00831094  RH  027%=      5-min Rain = 0
KHO1 221703Z 33014KT 08/M10 A2989 RMK A01 T00831095  RH  027%=      5-min Rain = 0
KHO1 221704Z 33015KT 08/M09 A2988 RMK A01 T00831094  RH  027%=      5-min Rain = 0
KHO1 221705Z 33014KT 08/M09 A2989 RMK A01 T00821093  RH  028%=      5-min Rain = 0
KHO1 221706Z 33010KT 08/M09 A2989 RMK A01 T00831091  RH  028%=      5-min Rain = 0
KHO1 221707Z 33010KT 08/M09 A2989 RMK A01 T00841091  RH  028%=      5-min Rain = 0
KHO1 221708Z 33012KT 08/M09 A2989 RMK A01 T00841090  RH  028%=      5-min Rain = 0
KHO1 221709Z 33009KT 08/M09 A2989 RMK A01 T00841089  RH  028%=      5-min Rain = 0
KHO1 221710Z 34010KT 09/M09 A2989 RMK A01 T00851088  RH  029%=      5-min Rain = 0
KHO1 221711Z 34009KT 09/M09 A2989 RMK A01 T00851086  RH  029%=      5-min Rain = 0
KHO1 221712Z 35012KT 09/M09 A2989 RMK A01 T00861087  RH  029%=      5-min Rain = 0
KHO1 221713Z 34013KT 09/M09 A2989 RMK A01 T00851087  RH  029%=      5-min Rain = 0
KHO1 221714Z 33011KT 08/M09 A2989 RMK A01 T00841087  RH  029%=      5-min Rain = 0
KHO1 221715Z 33010KT 08/M09 A2989 RMK A01 T00841086  RH  029%=      5-min Rain = 0
KHO1 221716Z 34011KT 09/M08 A2989 RMK A01 T00851083  RH  029%=      5-min Rain = 0
KHO1 221717Z 34012KT 09/M09 A2989 RMK A01 T00861085  RH  029%=      5-min Rain = 0
KHO1 221718Z 34010KT 09/M08 A2989 RMK A01 T00861083  RH  029%=      5-min Rain = 0
KHO1 221719Z 34011KT 09/M08 A2989 RMK A01 T00871082  RH  029%=      5-min Rain = 0
KHO1 221720Z 33013KT 09/M08 A2989 RMK A01 T00881084  RH  029%=      5-min Rain = 0
KHO1 221721Z 33010KT 09/M08 A2989 RMK A01 T00881083  RH  029%=      5-min Rain = 0
KHO1 221722Z 33012KT 09/M08 A2989 RMK A01 T00881084  RH  029%=      5-min Rain = 0
KHO1 221723Z 33012KT 09/M08 A2989 RMK A01 T00881084  RH  029%=      5-min Rain = 0
KHO1 221724Z 33011KT 09/M08 A2989 RMK A01 T00891084  RH  029%=      5-min Rain = 0
KHO1 221725Z 33014KT 09/M09 A2989 RMK A01 T00901087  RH  028%=      5-min Rain = 0
KHO1 221726Z 33014KT 09/M09 A2989 RMK A01 T00901087  RH  028%=      5-min Rain = 0
KHO1 221727Z 33014KT 09/M09 A2989 RMK A01 T00911089  RH  027%=      5-min Rain = 0
KHO1 221728Z 34016G21KT 09/M09 A2989 RMK A01 T00911090  RH  027%=      5-min Rain = 0
KHO1 221729Z 33015KT 09/M09 A2989 RMK A01 T00911091  RH  027%=      5-min Rain = 0
KHO1 221730Z 32017KT 09/M09 A2989 RMK A01 T00901091  RH  027%=      5-min Rain = 0
KHO1 221731Z 33019G25KT 09/M09 A2989 RMK A01 T00891091  RH  027%=      5-min Rain = 0
KHO1 221732Z 33020KT 09/M09 A2989 RMK A01 T00871092  RH  027%=      5-min Rain = 0
KHO1 221733Z 34017KT 09/M09 A2989 RMK A01 T00861090  RH  028%=      5-min Rain = 0
KHO1 221734Z 35016KT 09/M09 A2989 RMK A01 T00861090  RH  028%=      5-min Rain = 0
KHO1 221735Z 35015G21KT 09/M09 A2989 RMK A01 T00851090  RH  028%=      5-min Rain = 0
KHO1 221736Z 34014KT 09/M09 A299 RMK A01 T00851089  RH  028%=      5-min Rain = 0
KHO1 221737Z 34018KT 09/M09 A2989 RMK A01 T00851090  RH  028%=      5-min Rain = 0
KHO1 221738Z 34019KT 08/M09 A2989 RMK A01 T00831092  RH  028%=      5-min Rain = 0
KHO1 221739Z 34016KT 08/M09 A299 RMK A01 T00831091  RH  028%=      5-min Rain = 0
KHO1 221740Z 34016KT 08/M09 A299 RMK A01 T00821091  RH  028%=      5-min Rain = 0
KHO1 221741Z 34014KT 08/M09 A299 RMK A01 T00821090  RH  029%=      5-min Rain = 0
KHO1 221742Z 34013KT 08/M09 A299 RMK A01 T00821090  RH  029%=      5-min Rain = 0
KHO1 221743Z 34013KT 08/M09 A299 RMK A01 T00821089  RH  029%=      5-min Rain = 0
KHO1 221744Z 34015KT 08/M09 A299 RMK A01 T00821090  RH  028%=      5-min Rain = 0
KHO1 221745Z 34016KT 08/M09 A299 RMK A01 T00821090  RH  029%=      5-min Rain = 0
KHO1 221746Z 34015G20KT 08/M09 A299 RMK A01 T00821089  RH  029%=      5-min Rain = 0
KHO1 221747Z 34016KT 08/M09 A299 RMK A01 T00821089  RH  029%=      5-min Rain = 0
KHO1 221748Z 34015KT 08/M09 A2991 RMK A01 T00821089  RH  029%=      5-min Rain = 0
KHO1 221749Z 34014KT 08/M09 A299 RMK A01 T00831088  RH  029%=      5-min Rain = 0
KHO1 221750Z 33015G20KT 08/M09 A299 RMK A01 T00841087  RH  029%=      5-min Rain = 0
KHO1 221751Z 34017G22KT 08/M09 A2991 RMK A01 T00841087  RH  029%=      5-min Rain = 0
KHO1 221752Z 34015KT 08/M09 A2991 RMK A01 T00841088  RH  029%=      5-min Rain = 0
KHO1 221753Z 35015KT 08/M09 A2991 RMK A01 T00841088  RH  029%=      5-min Rain = 0
KHO1 221754Z 34016KT 09/M09 A2991 RMK A01 T00861086  RH  029%=      5-min Rain = 0
KHO1 221755Z 34016G21KT 09/M09 A2991 RMK A01 T00881086  RH  028%=      5-min Rain = 0
KHO1 221756Z 34020KT 09/M09 A2991 RMK A01 T00891088  RH  028%=      5-min Rain = 0
KHO1 221757Z 34020KT 09/M09 A2991 RMK A01 T00881088  RH  028%=      5-min Rain = 0
KHO1 221758Z 35019KT 09/M09 A2991 RMK A01 T00871089  RH  028%=      5-min Rain = 0
KHO1 221759Z 34016KT 09/M09 A2991 RMK A01 T00861089  RH  028%=      5-min Rain = 0
KHO1 221800Z 34015KT 09/M09 A2991 RMK A01 T00871087  RH  028%=      5-min Rain = 0
KHO1 221801Z 33014G19KT 09/M09 A2991 RMK A01 T00881086  RH  028%=      5-min Rain = 0
KHO1 221802Z 33015KT 09/M09 A2991 RMK A01 T00881087  RH  028%=      5-min Rain = 0
KHO1 221803Z 33017KT 09/M09 A2991 RMK A01 T00881088  RH  028%=      5-min Rain = 0
KHO1 221804Z 34016KT 09/M09 A2991 RMK A01 T00881088  RH  028%=      5-min Rain = 0
KHO1 221805Z 34014KT 09/M09 A2991 RMK A01 T00881088  RH  028%=      5-min Rain = 0
KHO1 221806Z 34015G21KT 09/M09 A2991 RMK A01 T00881090  RH  027%=      5-min Rain = 0
KHO1 221807Z 35018KT 09/M09 A2991 RMK A01 T00871089  RH  028%=      5-min Rain = 0
KHO1 221808Z 34016G21KT 09/M09 A2991 RMK A01 T00891086  RH  028%=      5-min Rain = 0
KHO1 221809Z 34014G20KT 09/M09 A2991 RMK A01 T00911087  RH  027%=      5-min Rain = 0
KHO1 221810Z 34013KT 09/M09 A2991 RMK A01 T00911088  RH  027%=      5-min Rain = 0
KHO1 221811Z 34012KT 09/M09 A2991 RMK A01 T00901087  RH  028%=      5-min Rain = 0
KHO1 221812Z 35012KT 09/M09 A2991 RMK A01 T00891086  RH  028%=      5-min Rain = 0
KHO1 221813Z 36011KT 09/M09 A2991 RMK A01 T00881086  RH  028%=      5-min Rain = 0
KHO1 221814Z 36011KT 09/M09 A2991 RMK A01 T00881085  RH  029%=      5-min Rain = 0
KHO1 221815Z 34013KT 09/M09 A2991 RMK A01 T00881087  RH  028%=      5-min Rain = 0
KHO1 221816Z 34012KT 09/M09 A2991 RMK A01 T00891088  RH  028%=      5-min Rain = 0
KHO1 221817Z 33010KT 09/M09 A2992 RMK A01 T00911086  RH  028%=      5-min Rain = 0
KHO1 221818Z 34012KT 09/M09 A2992 RMK A01 T00941086  RH  027%=      5-min Rain = 0
KHO1 221819Z 32013KT 10/M09 A2992 RMK A01 T00951086  RH  027%=      5-min Rain = 0
KHO1 221820Z 34014G19KT 10/M08 A2992 RMK A01 T00971082  RH  027%=      5-min Rain = 0
KHO1 221821Z 35017KT 10/M09 A2992 RMK A01 T00981086  RH  026%=      5-min Rain = 0
KHO1 221822Z 34012KT 10/M08 A2992 RMK A01 T00981083  RH  027%=      5-min Rain = 0
KHO1 221823Z 34012KT 10/M08 A2991 RMK A01 T01011082  RH  027%=      5-min Rain = 0
KHO1 221824Z 34013G19KT 10/M08 A2992 RMK A01 T01031079  RH  027%=      5-min Rain = 0
KHO1 221825Z 34017KT 10/M08 A2992 RMK A01 T01041084  RH  026%=      5-min Rain = 0
KHO1 221826Z 34018KT 10/M09 A2992 RMK A01 T01011086  RH  026%=      5-min Rain = 0
KHO1 221827Z 34021KT 10/M09 A2991 RMK A01 T01001085  RH  026%=      5-min Rain = 0
KHO1 221828Z 34018KT 10/M09 A2992 RMK A01 T00991085  RH  026%=      5-min Rain = 0
KHO1 221829Z 33017KT 10/M08 A2992 RMK A01 T00991084  RH  027%=      5-min Rain = 0
KHO1 221830Z 34012KT 10/M08 A2992 RMK A01 T01021082  RH  026%=      5-min Rain = 0
KHO1 221831Z 34013G21KT 11/M08 A2992 RMK A01 T01061079  RH  026%=      5-min Rain = 0
KHO1 221832Z 34019G24KT 10/M08 A2991 RMK A01 T01031078  RH  027%=      5-min Rain = 0
KHO1 221833Z 01019G24KT 10/M08 A2991 RMK A01 T01011078  RH  028%=      5-min Rain = 0
KHO1 221834Z 01017G22KT 10/M08 A2991 RMK A01 T00981077  RH  028%=      5-min Rain = 0
KHO1 221835Z 01018KT 10/M08 A2992 RMK A01 T00961078  RH  028%=      5-min Rain = 0
KHO1 221836Z 01018KT 10/M08 A2992 RMK A01 T00951077  RH  029%=      5-min Rain = 0
KHO1 221837Z 00017KT 10/M08 A2992 RMK A01 T00951077  RH  029%=      5-min Rain = 0
KHO1 221838Z 01018KT 09/M08 A2992 RMK A01 T00921079  RH  029%=      5-min Rain = 0
KHO1 221839Z 00018G23KT 09/M08 A2992 RMK A01 T00901079  RH  030%=      5-min Rain = 0
KHO1 221840Z 35018KT 09/M08 A2992 RMK A01 T00881080  RH  030%=      5-min Rain = 0
KHO1 221841Z 34017KT 09/M08 A2992 RMK A01 T00871079  RH  030%=      5-min Rain = 0
KHO1 221842Z 35014KT 09/M08 A2992 RMK A01 T00871078  RH  030%=      5-min Rain = 0
KHO1 221843Z 35016G21KT 09/M08 A2992 RMK A01 T00861079  RH  030%=      5-min Rain = 0
KHO1 221844Z 36014KT 09/M08 A2992 RMK A01 T00861076  RH  031%=      5-min Rain = 0
KHO1 221845Z 00012KT 09/M07 A2992 RMK A01 T00861073  RH  032%=      5-min Rain = 0
KHO1 221846Z 01018G23KT 09/M07 A2992 RMK A01 T00901072  RH  031%=      5-min Rain = 0
KHO1 221847Z 36020KT 09/M06 A2992 RMK A01 T00901060  RH  034%=      5-min Rain = 0
KHO1 221848Z 36022G29KT 09/M05 A2992 RMK A01 T00861053  RH  037%=      5-min Rain = 0
KHO1 221849Z 35022KT 08/M05 A2992 RMK A01 T00821054  RH  038%=      5-min Rain = 0
KHO1 221850Z 35024KT 08/M05 A2992 RMK A01 T00811054  RH  038%=      5-min Rain = 0
KHO1 221851Z 00019G25KT 08/M05 A2992 RMK A01 T00801051  RH  039%=      5-min Rain = 0
KHO1 221852Z 00019G24KT 08/M05 A2993 RMK A01 T00831050  RH  038%=      5-min Rain = 0
KHO1 221853Z 01024KT 08/M05 A2993 RMK A01 T00811049  RH  039%=      5-min Rain = 0
KHO1 221854Z 35018G23KT 08/M05 A2993 RMK A01 T00801046  RH  040%=      5-min Rain = 0
KHO1 221855Z 35020KT 08/M05 A2993 RMK A01 T00801048  RH  040%=      5-min Rain = 0
KHO1 221856Z 36018KT 08/M05 A2993 RMK A01 T00801049  RH  040%=      5-min Rain = 0
KHO1 221857Z 36016G22KT 08/M05 A2993 RMK A01 T00821049  RH  039%=      5-min Rain = 0
KHO1 221858Z 01016G23KT 08/M05 A2993 RMK A01 T00811050  RH  039%=      5-min Rain = 0
KHO1 221859Z 00018KT 08/M05 A2993 RMK A01 T00841049  RH  039%=      5-min Rain = 0
KHO1 221900Z 01016KT 08/M05 A2993 RMK A01 T00831050  RH  038%=      5-min Rain = 0
KHO1 221901Z 00017KT 08/M05 A2993 RMK A01 T00831048  RH  039%=      5-min Rain = 0
KHO1 221902Z 01024G29KT 08/M05 A2993 RMK A01 T00821047  RH  040%=      5-min Rain = 0
KHO1 221903Z 02025G31KT 08/M05 A2993 RMK A01 T00761047  RH  041%=      5-min Rain = 0
KHO1 221904Z 02026G32KT 07/M05 A2993 RMK A01 T00731049  RH  042%=      5-min Rain = 0
KHO1 221905Z 02020G27KT 07/M05 A2993 RMK A01 T00721047  RH  042%=      5-min Rain = 0
KHO1 221906Z 01021KT 07/M05 A2994 RMK A01 T00731048  RH  042%=      5-min Rain = 0
KHO1 221907Z 01023G32KT 07/M05 A2994 RMK A01 T00711050  RH  042%=      5-min Rain = 0
KHO1 221908Z 01028KT 07/M05 A2994 RMK A01 T00691052  RH  042%=      5-min Rain = 0
KHO1 221909Z 01027G32KT 07/M05 A2994 RMK A01 T00661053  RH  042%=      5-min Rain = 0
KHO1 221910Z 01025KT 06/M05 A2994 RMK A01 T00631054  RH  043%=      5-min Rain = 0
KHO1 221911Z 01023KT 06/M05 A2994 RMK A01 T00631053  RH  043%=      5-min Rain = 0
KHO1 221912Z 00019G25KT 07/M05 A2994 RMK A01 T00651053  RH  043%=      5-min Rain = 0
KHO1 221913Z 35023KT 07/M05 A2994 RMK A01 T00671053  RH  042%=      5-min Rain = 0
KHO1 221914Z 36022KT 07/M06 A2994 RMK A01 T00661055  RH  042%=      5-min Rain = 0
KHO1 221915Z 01022G27KT 07/M06 A2994 RMK A01 T00671055  RH  042%=      5-min Rain = 0
KHO1 221916Z 01021KT 07/M06 A2994 RMK A01 T00661056  RH  041%=      5-min Rain = 0
KHO1 221917Z 01024G29KT 07/M06 A2994 RMK A01 T00661055  RH  042%=      5-min Rain = 0
KHO1 221918Z 00020G26KT 07/M05 A2994 RMK A01 T00681053  RH  042%=      5-min Rain = 0
KHO1 221919Z 36020KT 07/M05 A2994 RMK A01 T00691053  RH  041%=      5-min Rain = 0
KHO1 221920Z 35023G28KT 07/M06 A2994 RMK A01 T00691055  RH  041%=      5-min Rain = 0
KHO1 221921Z 36021KT 07/M06 A2994 RMK A01 T00681055  RH  041%=      5-min Rain = 0
KHO1 221922Z 36024G29KT 07/M06 A2994 RMK A01 T00671055  RH  041%=      5-min Rain = 0
KHO1 221923Z 36022KT 07/M05 A2995 RMK A01 T00661054  RH  042%=      5-min Rain = 0
KHO1 221924Z 01021G27KT 07/M05 A2995 RMK A01 T00671054  RH  042%=      5-min Rain = 0
KHO1 221925Z 00018G23KT 07/M05 A2995 RMK A01 T00691053  RH  042%=      5-min Rain = 0
KHO1 221926Z 35021G27KT 07/M06 A2995 RMK A01 T00691056  RH  040%=      5-min Rain = 0
KHO1 221927Z 36020G25KT 07/M06 A2995 RMK A01 T00671056  RH  041%=      5-min Rain = 0
KHO1 221928Z 01024KT 07/M06 A2995 RMK A01 T00661058  RH  041%=      5-min Rain = 0
KHO1 221929Z 01020KT 06/M06 A2995 RMK A01 T00641058  RH  041%=      5-min Rain = 0
KHO1 221930Z 01022KT 06/M06 A2995 RMK A01 T00641059  RH  041%=      5-min Rain = 0
KHO1 221931Z 01019G25KT 07/M06 A2995 RMK A01 T00651058  RH  041%=      5-min Rain = 0
KHO1 221932Z 01018G23KT 07/M06 A2995 RMK A01 T00671058  RH  041%=      5-min Rain = 0
KHO1 221933Z 01020G26KT 07/M06 A2995 RMK A01 T00681057  RH  040%=      5-min Rain = 0
KHO1 221934Z 02022G28KT 07/M06 A2995 RMK A01 T00681058  RH  040%=      5-min Rain = 0
KHO1 221935Z 02023G32KT 07/M06 A2995 RMK A01 T00671059  RH  040%=      5-min Rain = 0
KHO1 221936Z 01022G27KT 07/M06 A2996 RMK A01 T00651060  RH  041%=      5-min Rain = 0
KHO1 221937Z 02021G26KT 06/M06 A2996 RMK A01 T00621061  RH  041%=      5-min Rain = 0
KHO1 221938Z 01019G26KT 06/M06 A2996 RMK A01 T00591062  RH  042%=      5-min Rain = 0
KHO1 221939Z 01022KT 06/M06 A2996 RMK A01 T00571062  RH  042%=      5-min Rain = 0
KHO1 221940Z 01020G25KT 06/M06 A2996 RMK A01 T00561062  RH  042%=      5-min Rain = 0
KHO1 221941Z 01022KT 05/M06 A2996 RMK A01 T00541062  RH  043%=      5-min Rain = 0
KHO1 221942Z 01020KT 05/M06 A2996 RMK A01 T00521062  RH  043%=      5-min Rain = 0
KHO1 221943Z 00016G22KT 05/M06 A2996 RMK A01 T00521061  RH  044%=      5-min Rain = 0
KHO1 221944Z 01014G19KT 06/M06 A2997 RMK A01 T00551059  RH  043%=      5-min Rain = 0
KHO1 221945Z 01016G21KT 06/M06 A2996 RMK A01 T00601059  RH  042%=      5-min Rain = 0
KHO1 221946Z 00016G24KT 06/M06 A2996 RMK A01 T00611058  RH  042%=      5-min Rain = 0
KHO1 221947Z 00018G24KT 06/M06 A2996 RMK A01 T00621056  RH  043%=      5-min Rain = 0
KHO1 221948Z 00018G24KT 06/M06 A2996 RMK A01 T00631057  RH  042%=      5-min Rain = 0
KHO1 221949Z 00021G28KT 06/M06 A2997 RMK A01 T00631057  RH  042%=      5-min Rain = 0
KHO1 221950Z 01025G30KT 06/M06 A2996 RMK A01 T00591059  RH  042%=      5-min Rain = 0
KHO1 221951Z 00020G25KT 06/M06 A2997 RMK A01 T00571057  RH  044%=      5-min Rain = 0
KHO1 221952Z 02022KT 06/M06 A2997 RMK A01 T00581057  RH  043%=      5-min Rain = 0
KHO1 221953Z 01020G25KT 06/M06 A2997 RMK A01 T00571058  RH  044%=      5-min Rain = 0
KHO1 221954Z 01019KT 06/M06 A2996 RMK A01 T00571057  RH  044%=      5-min Rain = 0
KHO1 221955Z 35019G26KT 06/M06 A2997 RMK A01 T00591057  RH  043%=      5-min Rain = 0
KHO1 221956Z 00018G25KT 06/M06 A2997 RMK A01 T00581058  RH  043%=      5-min Rain = 0
KHO1 221957Z 01023KT 06/M06 A2997 RMK A01 T00561059  RH  043%=      5-min Rain = 0
KHO1 221958Z 02018KT 06/M06 A2997 RMK A01 T00551058  RH  044%=      5-min Rain = 0
KHO1 221959Z 02018KT 06/M06 A2997 RMK A01 T00581057  RH  044%=      5-min Rain = 0
KHO1 222000Z 01020G26KT 06/M06 A2997 RMK A01 T00601058  RH  043%=      5-min Rain = 0
KHO1 222001Z 01017KT 06/M06 A2997 RMK A01 T00591059  RH  043%=      5-min Rain = 0
KHO1 222002Z 00020KT 06/M06 A2998 RMK A01 T00581061  RH  042%=      5-min Rain = 0
KHO1 222003Z 00019G24KT 06/M06 A2997 RMK A01 T00571062  RH  042%=      5-min Rain = 0
KHO1 222004Z 00017KT 06/M06 A2997 RMK A01 T00571062  RH  042%=      5-min Rain = 0
KHO1 222005Z 01018G23KT 06/M06 A2997 RMK A01 T00571063  RH  042%=      5-min Rain = 0
KHO1 222006Z 02018KT 06/M06 A2997 RMK A01 T00581063  RH  041%=      5-min Rain = 0
KHO1 222007Z 02019KT 06/M07 A2997 RMK A01 T00581065  RH  041%=      5-min Rain = 0
KHO1 222008Z 02018G26KT 06/M06 A2998 RMK A01 T00581064  RH  041%=      5-min Rain = 0
KHO1 222009Z 01019G25KT 06/M07 A2998 RMK A01 T00591065  RH  041%=      5-min Rain = 0
KHO1 222010Z 01017G24KT 06/M06 A2998 RMK A01 T00581064  RH  041%=      5-min Rain = 0
KHO1 222011Z 02019KT 06/M07 A2998 RMK A01 T00581066  RH  041%=      5-min Rain = 0
KHO1 222012Z 01019G25KT 06/M07 A2998 RMK A01 T00581065  RH  041%=      5-min Rain = 0
KHO1 222013Z 01021KT 06/M07 A2998 RMK A01 T00571066  RH  041%=      5-min Rain = 0
KHO1 222014Z 01017G22KT 06/M07 A2998 RMK A01 T00561066  RH  041%=      5-min Rain = 0
KHO1 222015Z 00014G19KT 06/M07 A2998 RMK A01 T00571065  RH  041%=      5-min Rain = 0
KHO1 222016Z 35016KT 06/M06 A2998 RMK A01 T00581064  RH  041%=      5-min Rain = 0
KHO1 222017Z 00016KT 06/M07 A2998 RMK A01 T00581065  RH  041%=      5-min Rain = 0
KHO1 222018Z 36015KT 06/M06 A2998 RMK A01 T00591064  RH  041%=      5-min Rain = 0
KHO1 222019Z 02014G20KT 06/M06 A2998 RMK A01 T00611064  RH  040%=      5-min Rain = 0
KHO1 222020Z 02018KT 06/M07 A2998 RMK A01 T00621066  RH  039%=      5-min Rain = 0
KHO1 222021Z 01017KT 06/M07 A2998 RMK A01 T00621066  RH  040%=      5-min Rain = 0
KHO1 222022Z 02015G21KT 06/M07 A2998 RMK A01 T00631066  RH  039%=      5-min Rain = 0
KHO1 222023Z 01014KT 06/M07 A2998 RMK A01 T00641066  RH  039%=      5-min Rain = 0
KHO1 222024Z 00014KT 07/M07 A2998 RMK A01 T00651066  RH  039%=      5-min Rain = 0
KHO1 222025Z 36015KT 07/M07 A2998 RMK A01 T00671066  RH  038%=      5-min Rain = 0
KHO1 222026Z 00016KT 07/M07 A2998 RMK A01 T00681066  RH  038%=      5-min Rain = 0
KHO1 222027Z 35016KT 07/M07 A2998 RMK A01 T00691068  RH  037%=      5-min Rain = 0
KHO1 222028Z 34016KT 07/M07 A2998 RMK A01 T00671068  RH  037%=      5-min Rain = 0
KHO1 222029Z 35017KT 07/M07 A2998 RMK A01 T00681069  RH  037%=      5-min Rain = 0
KHO1 222030Z 01017KT 07/M07 A2998 RMK A01 T00681069  RH  037%=      5-min Rain = 0
KHO1 222031Z 01021G26KT 07/M07 A2998 RMK A01 T00681070  RH  037%=      5-min Rain = 0
KHO1 222032Z 00022KT 07/M07 A2998 RMK A01 T00661070  RH  037%=      5-min Rain = 0
KHO1 222033Z 00018KT 07/M07 A2999 RMK A01 T00651071  RH  037%=      5-min Rain = 0
KHO1 222034Z 36014KT 07/M07 A2999 RMK A01 T00651069  RH  038%=      5-min Rain = 0
KHO1 222035Z 36016G21KT 07/M07 A2999 RMK A01 T00651070  RH  037%=      5-min Rain = 0
KHO1 222036Z 01015KT 06/M07 A2998 RMK A01 T00641071  RH  037%=      5-min Rain = 0
KHO1 222037Z 02013G18KT 06/M07 A2998 RMK A01 T00641070  RH  038%=      5-min Rain = 0
KHO1 222038Z 00014G20KT 07/M07 A2998 RMK A01 T00671069  RH  037%=      5-min Rain = 0
KHO1 222039Z 01018KT 07/M07 A2998 RMK A01 T00681072  RH  036%=      5-min Rain = 0
KHO1 222040Z 01016KT 07/M07 A2998 RMK A01 T00681070  RH  037%=      5-min Rain = 0
KHO1 222041Z 35020KT 07/M07 A2998 RMK A01 T00681073  RH  036%=      5-min Rain = 0
KHO1 222042Z 34018KT 07/M07 A2998 RMK A01 T00661072  RH  036%=      5-min Rain = 0
KHO1 222043Z 35017KT 07/M07 A2999 RMK A01 T00681072  RH  036%=      5-min Rain = 0
KHO1 222044Z 35014KT 07/M07 A2999 RMK A01 T00671072  RH  036%=      5-min Rain = 0
KHO1 222045Z 01013KT 07/M07 A2999 RMK A01 T00671072  RH  036%=      5-min Rain = 0
KHO1 222046Z 01016G23KT 07/M07 A2999 RMK A01 T00691072  RH  036%=      5-min Rain = 0
KHO1 222047Z 00020KT 07/M07 A2999 RMK A01 T00681074  RH  035%=      5-min Rain = 0
KHO1 222048Z 35018G23KT 07/M07 A2999 RMK A01 T00681074  RH  036%=      5-min Rain = 0
KHO1 222049Z 35018G23KT 07/M07 A2999 RMK A01 T00691074  RH  036%=      5-min Rain = 0
KHO1 222050Z 35015KT 07/M07 A30 RMK A01 T00671073  RH  036%=      5-min Rain = 0
KHO1 222051Z 00018KT 07/M07 A2999 RMK A01 T00681073  RH  036%=      5-min Rain = 0
KHO1 222052Z 00016KT 07/M07 A30 RMK A01 T00671073  RH  036%=      5-min Rain = 0
KHO1 222053Z 36016KT 07/M07 A30 RMK A01 T00671073  RH  036%=      5-min Rain = 0
KHO1 222054Z 01020KT 07/M07 A30 RMK A01 T00681073  RH  036%=      5-min Rain = 0
KHO1 222055Z 01018G24KT 07/M07 A2999 RMK A01 T00671074  RH  036%=      5-min Rain = 0
KHO1 222056Z 36020KT 07/M07 A2999 RMK A01 T00671074  RH  036%=      5-min Rain = 0
KHO1 222057Z 35021G26KT 07/M07 A30 RMK A01 T00671074  RH  036%=      5-min Rain = 0
KHO1 222058Z 00014G19KT 07/M07 A30 RMK A01 T00671073  RH  036%=      5-min Rain = 0
KHO1 222059Z 35016KT 07/M07 A2999 RMK A01 T00681074  RH  036%=      5-min Rain = 0
KHO1 222100Z 01020KT 07/M07 A2999 RMK A01 T00671074  RH  036%=      5-min Rain = 0
KHO1 222101Z 01017KT 07/M08 A2999 RMK A01 T00681075  RH  035%=      5-min Rain = 0
KHO1 222102Z 01019G24KT 07/M08 A2999 RMK A01 T00671075  RH  036%=      5-min Rain = 0
KHO1 222103Z 35019G24KT 07/M08 A2999 RMK A01 T00671075  RH  036%=      5-min Rain = 0
KHO1 222104Z 36013KT 07/M07 A2999 RMK A01 T00691074  RH  035%=      5-min Rain = 0
KHO1 222105Z 36018KT 07/M08 A2999 RMK A01 T00711076  RH  034%=      5-min Rain = 0
KHO1 222106Z 00015KT 07/M08 A2999 RMK A01 T00711076  RH  034%=      5-min Rain = 0
KHO1 222107Z 00015KT 07/M08 A2999 RMK A01 T00711078  RH  034%=      5-min Rain = 0
KHO1 222108Z 36018KT 07/M08 A2999 RMK A01 T00691080  RH  034%=      5-min Rain = 0
KHO1 222109Z 35019G24KT 07/M08 A2999 RMK A01 T00681081  RH  034%=      5-min Rain = 0
KHO1 222110Z 35021KT 07/M08 A30 RMK A01 T00651083  RH  034%=      5-min Rain = 0
KHO1 222111Z 35020KT 06/M08 A30 RMK A01 T00641084  RH  034%=      5-min Rain = 0
KHO1 222112Z 00020G25KT 06/M09 A30 RMK A01 T00631085  RH  034%=      5-min Rain = 0
KHO1 222113Z 01015KT 06/M08 A2999 RMK A01 T00641084  RH  034%=      5-min Rain = 0
KHO1 222114Z 01023G29KT 07/M09 A2999 RMK A01 T00651085  RH  033%=      5-min Rain = 0
KHO1 222115Z 02019G24KT 06/M09 A2999 RMK A01 T00641085  RH  033%=      5-min Rain = 0
KHO1 222116Z 02019G25KT 07/M09 A2999 RMK A01 T00651086  RH  033%=      5-min Rain = 0
KHO1 222117Z 01020G25KT 06/M09 A2999 RMK A01 T00641085  RH  033%=      5-min Rain = 0
KHO1 222118Z 01015KT 06/M08 A2999 RMK A01 T00641084  RH  034%=      5-min Rain = 0
KHO1 222119Z 35018KT 07/M08 A30 RMK A01 T00661084  RH  033%=      5-min Rain = 0
KHO1 222120Z 35016KT 07/M09 A30 RMK A01 T00651085  RH  033%=      5-min Rain = 0
KHO1 222121Z 36019G24KT 07/M08 A30 RMK A01 T00661084  RH  033%=      5-min Rain = 0
KHO1 222122Z 36019KT 06/M09 A30 RMK A01 T00641085  RH  033%=      5-min Rain = 0
KHO1 222123Z 35020KT 06/M09 A30 RMK A01 T00631085  RH  034%=      5-min Rain = 0
KHO1 222124Z 35019KT 06/M09 A30 RMK A01 T00621086  RH  034%=      5-min Rain = 0
KHO1 222125Z 00019KT 06/M09 A3001 RMK A01 T00611086  RH  034%=      5-min Rain = 0
KHO1 222126Z 00018KT 06/M09 A3001 RMK A01 T00621086  RH  034%=      5-min Rain = 0
KHO1 222127Z 01020KT 06/M09 A3001 RMK A01 T00621087  RH  034%=      5-min Rain = 0
KHO1 222128Z 01019KT 06/M09 A30 RMK A01 T00611087  RH  034%=      5-min Rain = 0
KHO1 222129Z 00015KT 06/M09 A3001 RMK A01 T00611086  RH  034%=      5-min Rain = 0
KHO1 222130Z 35017G22KT 06/M08 A3001 RMK A01 T00641084  RH  034%=      5-min Rain = 0
KHO1 222131Z 35018G23KT 07/M08 A3001 RMK A01 T00661084  RH  033%=      5-min Rain = 0
KHO1 222132Z 35019G26KT 06/M09 A3001 RMK A01 T00641085  RH  034%=      5-min Rain = 0
KHO1 222133Z 35020KT 06/M09 A3001 RMK A01 T00631087  RH  033%=      5-min Rain = 0
KHO1 222134Z 36020G25KT 06/M09 A3001 RMK A01 T00611087  RH  034%=      5-min Rain = 0
KHO1 222135Z 35016G22KT 06/M09 A3001 RMK A01 T00591087  RH  034%=      5-min Rain = 0
KHO1 222136Z 36017KT 06/M09 A3001 RMK A01 T00591087  RH  034%=      5-min Rain = 0
KHO1 222137Z 00021KT 06/M09 A3001 RMK A01 T00611088  RH  033%=      5-min Rain = 0
KHO1 222138Z 35018KT 06/M09 A3001 RMK A01 T00601089  RH  033%=      5-min Rain = 0
KHO1 222139Z 35016G21KT 06/M09 A3001 RMK A01 T00601088  RH  034%=      5-min Rain = 0
KHO1 222140Z 01018KT 06/M09 A3001 RMK A01 T00611089  RH  033%=      5-min Rain = 0
KHO1 222141Z 01016KT 06/M09 A3001 RMK A01 T00611089  RH  033%=      5-min Rain = 0
KHO1 222142Z 36020KT 06/M09 A3001 RMK A01 T00611089  RH  033%=      5-min Rain = 0
KHO1 222143Z 36018G23KT 06/M09 A3001 RMK A01 T00611089  RH  033%=      5-min Rain = 0
KHO1 222144Z 36020KT 06/M09 A3002 RMK A01 T00611090  RH  033%=      5-min Rain = 0
KHO1 222145Z 35018G23KT 06/M09 A3002 RMK A01 T00611090  RH  033%=      5-min Rain = 0
KHO1 222146Z 35018KT 06/M09 A3002 RMK A01 T00601090  RH  033%=      5-min Rain = 0
KHO1 222147Z 00017G23KT 06/M09 A3001 RMK A01 T00611089  RH  033%=      5-min Rain = 0
KHO1 222148Z 36017G24KT 06/M09 A3002 RMK A01 T00631088  RH  033%=      5-min Rain = 0
KHO1 222149Z 01019KT 06/M09 A3002 RMK A01 T00631090  RH  033%=      5-min Rain = 0
KHO1 222150Z 01019KT 06/M09 A3002 RMK A01 T00611091  RH  033%=      5-min Rain = 0
KHO1 222151Z 01017G24KT 06/M09 A3002 RMK A01 T00611089  RH  033%=      5-min Rain = 0
KHO1 222152Z 00022G28KT 06/M09 A3002 RMK A01 T00601091  RH  033%=      5-min Rain = 0
KHO1 222153Z 00019G24KT 06/M09 A3002 RMK A01 T00591091  RH  033%=      5-min Rain = 0
KHO1 222154Z 01020KT 06/M09 A3002 RMK A01 T00591091  RH  033%=      5-min Rain = 0
KHO1 222155Z 00019G24KT 06/M09 A3002 RMK A01 T00591090  RH  033%=      5-min Rain = 0
KHO1 222156Z 35022KT 06/M09 A3002 RMK A01 T00601091  RH  033%=      5-min Rain = 0
KHO1 222157Z 35019KT 06/M09 A3002 RMK A01 T00581091  RH  033%=      5-min Rain = 0
KHO1 222158Z 35017KT 06/M09 A3002 RMK A01 T00581090  RH  033%=      5-min Rain = 0
KHO1 222159Z 00016G21KT 06/M09 A3002 RMK A01 T00591090  RH  033%=      5-min Rain = 0
KHO1 222200Z 00020G27KT 06/M09 A3002 RMK A01 T00591091  RH  033%=      5-min Rain = 0
KHO1 222201Z 01020KT 06/M09 A3002 RMK A01 T00591091  RH  033%=      5-min Rain = 0
KHO1 222202Z 01022G27KT 06/M09 A3002 RMK A01 T00581092  RH  033%=      5-min Rain = 0
KHO1 222203Z 00018G24KT 06/M09 A3002 RMK A01 T00581093  RH  033%=      5-min Rain = 0
KHO1 222204Z 35018G25KT 06/M09 A3002 RMK A01 T00581093  RH  033%=      5-min Rain = 0
KHO1 222205Z 36019KT 06/M09 A3002 RMK A01 T00591094  RH  032%=      5-min Rain = 0
KHO1 222206Z 36019KT 06/M09 A3003 RMK A01 T00591094  RH  032%=      5-min Rain = 0
KHO1 222207Z 00021KT 06/M10 A3003 RMK A01 T00591095  RH  032%=      5-min Rain = 0
KHO1 222208Z 01021KT 06/M10 A3003 RMK A01 T00571096  RH  032%=      5-min Rain = 0
KHO1 222209Z 01019KT 06/M10 A3003 RMK A01 T00561096  RH  032%=      5-min Rain = 0
KHO1 222210Z 00017KT 06/M10 A3003 RMK A01 T00571096  RH  033%=      5-min Rain = 0
KHO1 222211Z 00018G23KT 06/M10 A3003 RMK A01 T00581095  RH  032%=      5-min Rain = 0
KHO1 222212Z 36020KT 06/M10 A3003 RMK A01 T00581097  RH  032%=      5-min Rain = 0
KHO1 222213Z 36013KT 06/M10 A3003 RMK A01 T00581095  RH  032%=      5-min Rain = 0
KHO1 222214Z 36020KT 06/M10 A3003 RMK A01 T00601096  RH  032%=      5-min Rain = 0
KHO1 222215Z 35017KT 06/M10 A3003 RMK A01 T00591098  RH  031%=      5-min Rain = 0
KHO1 222216Z 36021KT 06/M10 A3003 RMK A01 T00591100  RH  031%=      5-min Rain = 0
KHO1 222217Z 01024KT 06/M10 A3003 RMK A01 T00571100  RH  031%=      5-min Rain = 0
KHO1 222218Z 00023G28KT 06/M10 A3003 RMK A01 T00551102  RH  031%=      5-min Rain = 0
KHO1 222219Z 00019G24KT 06/M10 A3003 RMK A01 T00551101  RH  032%=      5-min Rain = 0
KHO1 222220Z 36018G23KT 06/M10 A3004 RMK A01 T00561100  RH  032%=      5-min Rain = 0
KHO1 222221Z 00020KT 06/M10 A3004 RMK A01 T00571101  RH  031%=      5-min Rain = 0
KHO1 222222Z 00018G24KT 06/M10 A3004 RMK A01 T00571100  RH  031%=      5-min Rain = 0
KHO1 222223Z 36020KT 06/M10 A3004 RMK A01 T00581102  RH  031%=      5-min Rain = 0
KHO1 222224Z 35017KT 06/M10 A3004 RMK A01 T00571103  RH  031%=      5-min Rain = 0
KHO1 222225Z 36023KT 06/M11 A3004 RMK A01 T00561105  RH  030%=      5-min Rain = 0
KHO1 222226Z 36018KT 06/M11 A3004 RMK A01 T00551105  RH  030%=      5-min Rain = 0
KHO1 222227Z 00021G26KT 06/M11 A3004 RMK A01 T00551105  RH  030%=      5-min Rain = 0
KHO1 222228Z 01023G28KT 06/M11 A3004 RMK A01 T00551108  RH  030%=      5-min Rain = 0
KHO1 222229Z 36021G27KT 06/M11 A3004 RMK A01 T00551109  RH  030%=      5-min Rain = 0
KHO1 222230Z 00020KT 05/M11 A3004 RMK A01 T00541109  RH  030%=      5-min Rain = 0
KHO1 222231Z 01024G29KT 06/M11 A3004 RMK A01 T00551109  RH  030%=      5-min Rain = 0
KHO1 222232Z 36020G27KT 06/M11 A3004 RMK A01 T00551109  RH  029%=      5-min Rain = 0
KHO1 222233Z 01021G30KT 06/M11 A3004 RMK A01 T00551111  RH  029%=      5-min Rain = 0
KHO1 222234Z 35020G28KT 05/M11 A3004 RMK A01 T00541111  RH  029%=      5-min Rain = 0
KHO1 222235Z 36021KT 06/M11 A3004 RMK A01 T00551111  RH  029%=      5-min Rain = 0
KHO1 222236Z 35019G25KT 05/M11 A3004 RMK A01 T00541111  RH  029%=      5-min Rain = 0
KHO1 222237Z 01020G27KT 06/M11 A3004 RMK A01 T00551111  RH  029%=      5-min Rain = 0
KHO1 222238Z 00016KT 06/M11 A3005 RMK A01 T00561110  RH  029%=      5-min Rain = 0
KHO1 222239Z 36017G23KT 06/M11 A3005 RMK A01 T00561111  RH  029%=      5-min Rain = 0
KHO1 222240Z 36021KT 06/M11 A3004 RMK A01 T00561112  RH  029%=      5-min Rain = 0
KHO1 222241Z 00020G26KT 05/M11 A3004 RMK A01 T00541113  RH  029%=      5-min Rain = 0
KHO1 222242Z 00016G23KT 05/M11 A3004 RMK A01 T00541112  RH  029%=      5-min Rain = 0
KHO1 222243Z 01022G27KT 05/M11 A3004 RMK A01 T00541113  RH  029%=      5-min Rain = 0
KHO1 222244Z 01021G26KT 05/M11 A3004 RMK A01 T00541113  RH  029%=      5-min Rain = 0
KHO1 222245Z 01022KT 05/M11 A3004 RMK A01 T00531114  RH  029%=      5-min Rain = 0
KHO1 222246Z 00023KT 05/M11 A3004 RMK A01 T00521114  RH  029%=      5-min Rain = 0
KHO1 222247Z 00018KT 05/M11 A3005 RMK A01 T00511113  RH  029%=      5-min Rain = 0
KHO1 222248Z 00014G19KT 05/M11 A3005 RMK A01 T00531111  RH  030%=      5-min Rain = 0
KHO1 222249Z 01016G26KT 05/M11 A3005 RMK A01 T00541111  RH  029%=      5-min Rain = 0
KHO1 222250Z 01019G27KT 06/M11 A3005 RMK A01 T00551112  RH  029%=      5-min Rain = 0
KHO1 222251Z 36019KT 05/M11 A3006 RMK A01 T00541112  RH  029%=      5-min Rain = 0
KHO1 222252Z 00016KT 06/M11 A3006 RMK A01 T00551112  RH  029%=      5-min Rain = 0
KHO1 222253Z 01018G24KT 05/M11 A3006 RMK A01 T00541113  RH  029%=      5-min Rain = 0
KHO1 222254Z 01018G23KT 05/M11 A3006 RMK A01 T00541113  RH  029%=      5-min Rain = 0
KHO1 222255Z 01022KT 05/M11 A3006 RMK A01 T00531114  RH  029%=      5-min Rain = 0
KHO1 222256Z 00020KT 05/M11 A3006 RMK A01 T00511114  RH  029%=      5-min Rain = 0
KHO1 222257Z 01016G21KT 05/M11 A3006 RMK A01 T00521113  RH  029%=      5-min Rain = 0
KHO1 222258Z 00017G22KT 05/M11 A3006 RMK A01 T00531112  RH  029%=      5-min Rain = 0
KHO1 222259Z 02017G24KT 05/M11 A3006 RMK A01 T00531113  RH  029%=      5-min Rain = 0
KHO1 222300Z 01022KT 05/M12 A3006 RMK A01 T00521115  RH  029%=      5-min Rain = 0
KHO1 222301Z 01021G26KT 05/M12 A3006 RMK A01 T00511115  RH  029%=      5-min Rain = 0
KHO1 222302Z 01019KT 05/M12 A3006 RMK A01 T00501115  RH  029%=      5-min Rain = 0
KHO1 222303Z 01016G22KT 05/M11 A3006 RMK A01 T00511114  RH  029%=      5-min Rain = 0
KHO1 222304Z 01018KT 05/M11 A3006 RMK A01 T00511113  RH  029%=      5-min Rain = 0
KHO1 222305Z 01017G22KT 05/M11 A3006 RMK A01 T00521113  RH  029%=      5-min Rain = 0
KHO1 222306Z 01015KT 05/M11 A3006 RMK A01 T00521112  RH  029%=      5-min Rain = 0
KHO1 222307Z 01015KT 05/M11 A3006 RMK A01 T00531112  RH  029%=      5-min Rain = 0
KHO1 222308Z 01019KT 05/M11 A3006 RMK A01 T00531112  RH  029%=      5-min Rain = 0
KHO1 222309Z 01022G28KT 05/M11 A3006 RMK A01 T00521113  RH  029%=      5-min Rain = 0
KHO1 222310Z 02020KT 05/M11 A3006 RMK A01 T00511113  RH  030%=      5-min Rain = 0
KHO1 222311Z 02016KT 05/M11 A3006 RMK A01 T00511111  RH  030%=      5-min Rain = 0
KHO1 222312Z 01018KT 05/M11 A3006 RMK A01 T00511111  RH  030%=      5-min Rain = 0
KHO1 222313Z 01019G24KT 05/M11 A3006 RMK A01 T00511112  RH  030%=      5-min Rain = 0
KHO1 222314Z 02021G26KT 05/M11 A3006 RMK A01 T00501112  RH  030%=      5-min Rain = 0
KHO1 222315Z 02023KT 05/M11 A3006 RMK A01 T00501112  RH  030%=      5-min Rain = 0
KHO1 222316Z 02020G25KT 05/M11 A3006 RMK A01 T00491112  RH  030%=      5-min Rain = 0
KHO1 222317Z 02020KT 05/M11 A3007 RMK A01 T00501111  RH  030%=      5-min Rain = 0
KHO1 222318Z 01023G28KT 05/M11 A3006 RMK A01 T00491110  RH  030%=      5-min Rain = 0
KHO1 222319Z 02022G31KT 05/M11 A3006 RMK A01 T00491109  RH  031%=      5-min Rain = 0
KHO1 222320Z 02023KT 05/M11 A3006 RMK A01 T00491109  RH  031%=      5-min Rain = 0
KHO1 222321Z 01021G26KT 05/M11 A3007 RMK A01 T00481109  RH  031%=      5-min Rain = 0
KHO1 222322Z 01021KT 05/M11 A3007 RMK A01 T00481109  RH  031%=      5-min Rain = 0
KHO1 222323Z 01018G23KT 05/M11 A3007 RMK A01 T00481108  RH  031%=      5-min Rain = 0
KHO1 222324Z 01019G27KT 05/M11 A3007 RMK A01 T00481107  RH  031%=      5-min Rain = 0
KHO1 222325Z 01025G30KT 05/M11 A3007 RMK A01 T00481109  RH  031%=      5-min Rain = 0
KHO1 222326Z 01022KT 05/M11 A3007 RMK A01 T00471109  RH  031%=      5-min Rain = 0
KHO1 222327Z 01020G28KT 05/M11 A3007 RMK A01 T00471109  RH  031%=      5-min Rain = 0
KHO1 222328Z 01022G27KT 05/M11 A3007 RMK A01 T00471109  RH  031%=      5-min Rain = 0
KHO1 222329Z 01020G25KT 05/M11 A3008 RMK A01 T00471108  RH  031%=      5-min Rain = 0
KHO1 222330Z 01020G25KT 05/M11 A3008 RMK A01 T00471108  RH  031%=      5-min Rain = 0
KHO1 222331Z 01022G27KT 05/M11 A3007 RMK A01 T00471109  RH  031%=      5-min Rain = 0
KHO1 222332Z 02019G28KT 05/M11 A3008 RMK A01 T00461109  RH  031%=      5-min Rain = 0
KHO1 222333Z 02023KT 05/M11 A3007 RMK A01 T00461110  RH  031%=      5-min Rain = 0
KHO1 222334Z 01020G27KT 05/M11 A3008 RMK A01 T00451110  RH  031%=      5-min Rain = 0
KHO1 222335Z 01022G28KT 05/M11 A3007 RMK A01 T00451110  RH  031%=      5-min Rain = 0
KHO1 222336Z 01019G24KT 05/M11 A3008 RMK A01 T00451110  RH  032%=      5-min Rain = 0
KHO1 222337Z 01021KT 05/M11 A3008 RMK A01 T00451110  RH  032%=      5-min Rain = 0
KHO1 222338Z 01020KT 05/M11 A3008 RMK A01 T00451110  RH  032%=      5-min Rain = 0
KHO1 222339Z 01019G26KT 05/M11 A3008 RMK A01 T00451110  RH  032%=      5-min Rain = 0
KHO1 222340Z 01019G25KT 04/M11 A3008 RMK A01 T00441110  RH  032%=      5-min Rain = 0
KHO1 222341Z 01021G26KT 04/M11 A3008 RMK A01 T00441110  RH  032%=      5-min Rain = 0
KHO1 222342Z 01020KT 04/M11 A3008 RMK A01 T00441110  RH  032%=      5-min Rain = 0
KHO1 222343Z 01020G26KT 04/M11 A3008 RMK A01 T00441110  RH  032%=      5-min Rain = 0
KHO1 222344Z 01017KT 04/M11 A3008 RMK A01 T00441110  RH  032%=      5-min Rain = 0
KHO1 222345Z 00018KT 04/M11 A3008 RMK A01 T00431110  RH  032%=      5-min Rain = 0
KHO1 222346Z 01017KT 04/M11 A3009 RMK A01 T00431110  RH  032%=      5-min Rain = 0
KHO1 222347Z 01019G25KT 04/M11 A3009 RMK A01 T00431110  RH  032%=      5-min Rain = 0
KHO1 222348Z 01018KT 04/M11 A3009 RMK A01 T00421110  RH  032%=      5-min Rain = 0
KHO1 222349Z 01016KT 04/M11 A3009 RMK A01 T00421110  RH  032%=      5-min Rain = 0
KHO1 222350Z 01019KT 04/M11 A3009 RMK A01 T00411110  RH  032%=      5-min Rain = 0
KHO1 222351Z 01019KT 04/M11 A3009 RMK A01 T00411110  RH  032%=      5-min Rain = 0
KHO1 222352Z 01018KT 04/M11 A3009 RMK A01 T00401111  RH  032%=      5-min Rain = 0
KHO1 222353Z 01020G26KT 04/M11 A3009 RMK A01 T00401111  RH  032%=      5-min Rain = 0
KHO1 222354Z 01024G29KT 04/M11 A3009 RMK A01 T00401112  RH  032%=      5-min Rain = 0
KHO1 222355Z 01022G28KT 04/M11 A3009 RMK A01 T00391113  RH  032%=      5-min Rain = 0
KHO1 222356Z 00023G28KT 04/M11 A3009 RMK A01 T00391113  RH  032%=      5-min Rain = 0
KHO1 222357Z 01023G28KT 04/M11 A3008 RMK A01 T00381114  RH  032%=      5-min Rain = 0
KHO1 222358Z 01021G28KT 04/M11 A3009 RMK A01 T00381113  RH  032%=      5-min Rain = 0
KHO1 222359Z 01022G27KT 04/M11 A3009 RMK A01 T00381113  RH  032%=      5-min Rain = 0
KHO1 230000Z 00020G27KT 04/M11 A3009 RMK A01 T00371112  RH  033%=      5-min Rain = 0
KHO1 230001Z 01023KT 04/M11 A3009 RMK A01 T00361112  RH  033%=      5-min Rain = 0
KHO1 230002Z 01022KT 04/M11 A3009 RMK A01 T00361112  RH  033%=      5-min Rain = 0
KHO1 230003Z 01018KT 04/M11 A3009 RMK A01 T00351111  RH  033%=      5-min Rain = 0
KHO1 230004Z 02014KT 03/M11 A3009 RMK A01 T00341111  RH  034%=      5-min Rain = 0
KHO1 230005Z 01018G23KT 03/M11 A3009 RMK A01 T00331111  RH  034%=      5-min Rain = 0
KHO1 230006Z 01018G25KT 03/M11 A301 RMK A01 T00331111  RH  034%=      5-min Rain = 0
KHO1 230007Z 01018G25KT 03/M11 A3009 RMK A01 T00321112  RH  034%=      5-min Rain = 0
KHO1 230008Z 01020KT 03/M11 A3009 RMK A01 T00321113  RH  034%=      5-min Rain = 0
KHO1 230009Z 02020KT 03/M11 A3009 RMK A01 T00311113  RH  034%=      5-min Rain = 0
KHO1 230010Z 01018G23KT 03/M11 A3009 RMK A01 T00311113  RH  034%=      5-min Rain = 0
KHO1 230011Z 02016G22KT 03/M11 A301 RMK A01 T00301113  RH  034%=      5-min Rain = 0
KHO1 230012Z 01015G21KT 03/M11 A301 RMK A01 T00301113  RH  034%=      5-min Rain = 0
KHO1 230013Z 01018KT 03/M11 A301 RMK A01 T00291113  RH  034%=      5-min Rain = 0
KHO1 230014Z 01017G23KT 03/M11 A301 RMK A01 T00291113  RH  034%=      5-min Rain = 0
KHO1 230015Z 01019KT 03/M11 A301 RMK A01 T00291114  RH  034%=      5-min Rain = 0
KHO1 230016Z 02015G20KT 03/M11 A301 RMK A01 T00281114  RH  034%=      5-min Rain = 0
KHO1 230017Z 01018KT 03/M11 A301 RMK A01 T00281114  RH  034%=      5-min Rain = 0
KHO1 230018Z 01018KT 03/M11 A301 RMK A01 T00281114  RH  034%=      5-min Rain = 0
KHO1 230019Z 01016KT 03/M11 A301 RMK A01 T00281114  RH  034%=      5-min Rain = 0
KHO1 230020Z 01017KT 03/M11 A301 RMK A01 T00271114  RH  035%=      5-min Rain = 0
KHO1 230021Z 01016G23KT 03/M11 A3011 RMK A01 T00271114  RH  035%=      5-min Rain = 0
KHO1 230022Z 01018G23KT 03/M11 A3011 RMK A01 T00271114  RH  035%=      5-min Rain = 0
KHO1 230023Z 01017KT 03/M11 A3011 RMK A01 T00271114  RH  035%=      5-min Rain = 0
KHO1 230024Z 01015KT 03/M11 A3011 RMK A01 T00271113  RH  035%=      5-min Rain = 0
KHO1 230025Z 01015G20KT 03/M11 A3011 RMK A01 T00261113  RH  035%=      5-min Rain = 0
KHO1 230026Z 01014KT 03/M11 A3011 RMK A01 T00261112  RH  035%=      5-min Rain = 0
KHO1 230027Z 01015KT 03/M11 A3011 RMK A01 T00251112  RH  036%=      5-min Rain = 0
KHO1 230028Z 01015KT 03/M11 A3011 RMK A01 T00251112  RH  036%=      5-min Rain = 0
KHO1 230029Z 01014KT 03/M11 A3011 RMK A01 T00251112  RH  036%=      5-min Rain = 0
KHO1 230030Z 01015KT 02/M11 A3012 RMK A01 T00241112  RH  036%=      5-min Rain = 0
KHO1 230031Z 01014KT 02/M11 A3012 RMK A01 T00241112  RH  036%=      5-min Rain = 0
KHO1 230032Z 01013G18KT 02/M11 A3012 RMK A01 T00241112  RH  036%=      5-min Rain = 0
KHO1 230033Z 01013KT 02/M11 A3012 RMK A01 T00231112  RH  036%=      5-min Rain = 0
KHO1 230034Z 01014KT 02/M11 A3012 RMK A01 T00231112  RH  036%=      5-min Rain = 0
KHO1 230035Z 00015KT 02/M11 A3012 RMK A01 T00231112  RH  036%=      5-min Rain = 0
KHO1 230036Z 01016KT 02/M11 A3012 RMK A01 T00231112  RH  036%=      5-min Rain = 0
KHO1 230037Z 01013KT 02/M11 A3012 RMK A01 T00231112  RH  036%=      5-min Rain = 0
KHO1 230038Z 01012KT 02/M11 A3012 RMK A01 T00231112  RH  036%=      5-min Rain = 0
KHO1 230039Z 01014KT 02/M11 A3012 RMK A01 T00221111  RH  037%=      5-min Rain = 0
KHO1 230040Z 01013KT 02/M11 A3012 RMK A01 T00221111  RH  037%=      5-min Rain = 0
KHO1 230041Z 01013KT 02/M11 A3012 RMK A01 T00221111  RH  037%=      5-min Rain = 0
KHO1 230042Z 01012G18KT 02/M11 A3012 RMK A01 T00221111  RH  037%=      5-min Rain = 0
KHO1 230043Z 01013KT 02/M11 A3013 RMK A01 T00221111  RH  037%=      5-min Rain = 0
KHO1 230044Z 01014G19KT 02/M11 A3013 RMK A01 T00221111  RH  037%=      5-min Rain = 0
KHO1 230045Z 01014KT 02/M11 A3013 RMK A01 T00211111  RH  037%=      5-min Rain = 0
KHO1 230046Z 01012KT 02/M11 A3013 RMK A01 T00211111  RH  037%=      5-min Rain = 0
KHO1 230047Z 01013KT 02/M11 A3013 RMK A01 T00211111  RH  037%=      5-min Rain = 0
KHO1 230048Z 01012KT 02/M11 A3013 RMK A01 T00211111  RH  037%=      5-min Rain = 0
KHO1 230049Z 01013KT 02/M11 A3013 RMK A01 T00211111  RH  037%=      5-min Rain = 0
KHO1 230050Z 01012KT 02/M11 A3014 RMK A01 T00211110  RH  037%=      5-min Rain = 0
KHO1 230051Z 01014KT 02/M11 A3014 RMK A01 T00211110  RH  037%=      5-min Rain = 0
KHO1 230052Z 01014KT 02/M11 A3014 RMK A01 T00211110  RH  037%=      5-min Rain = 0
KHO1 230053Z 01012KT 02/M11 A3014 RMK A01 T00211110  RH  037%=      5-min Rain = 0
KHO1 230054Z 01011KT 02/M11 A3014 RMK A01 T00201110  RH  037%=      5-min Rain = 0
KHO1 230055Z 01010KT 02/M11 A3014 RMK A01 T00201110  RH  038%=      5-min Rain = 0
KHO1 230056Z 01011KT 02/M11 A3014 RMK A01 T00201110  RH  038%=      5-min Rain = 0
KHO1 230057Z 00012KT 02/M11 A3014 RMK A01 T00191110  RH  038%=      5-min Rain = 0
KHO1 230058Z 01010KT 02/M11 A3014 RMK A01 T00191110  RH  038%=      5-min Rain = 0
KHO1 230059Z 01011KT 02/M11 A3014 RMK A01 T00191110  RH  038%=      5-min Rain = 0
KHO1 230100Z 01011KT 02/M11 A3014 RMK A01 T00191110  RH  038%=      5-min Rain = 0
KHO1 230101Z 01011KT 02/M11 A3014 RMK A01 T00191109  RH  038%=      5-min Rain = 0
KHO1 230102Z 01012KT 02/M11 A3014 RMK A01 T00181109  RH  038%=      5-min Rain = 0
KHO1 230103Z 01011KT 02/M11 A3014 RMK A01 T00181109  RH  038%=      5-min Rain = 0
KHO1 230104Z 01010KT 02/M11 A3014 RMK A01 T00181109  RH  038%=      5-min Rain = 0
KHO1 230105Z 01010KT 02/M11 A3014 RMK A01 T00181109  RH  039%=      5-min Rain = 0
KHO1 230106Z 01012KT 02/M11 A3014 RMK A01 T00181109  RH  039%=      5-min Rain = 0
KHO1 230107Z 01010KT 02/M11 A3014 RMK A01 T00181109  RH  038%=      5-min Rain = 0
KHO1 230108Z 01010KT 02/M11 A3014 RMK A01 T00181108  RH  039%=      5-min Rain = 0
KHO1 230109Z 01010KT 02/M11 A3015 RMK A01 T00171108  RH  039%=      5-min Rain = 0
KHO1 230110Z 01009KT 02/M11 A3015 RMK A01 T00171108  RH  039%=      5-min Rain = 0
KHO1 230111Z 01011KT 02/M11 A3015 RMK A01 T00171108  RH  039%=      5-min Rain = 0
KHO1 230112Z 01009KT 02/M11 A3015 RMK A01 T00171108  RH  039%=      5-min Rain = 0
KHO1 230113Z 01009KT 02/M11 A3015 RMK A01 T00171108  RH  039%=      5-min Rain = 0
KHO1 230114Z 01008KT 02/M11 A3015 RMK A01 T00161108  RH  039%=      5-min Rain = 0
KHO1 230115Z 01008KT 02/M11 A3015 RMK A01 T00161108  RH  040%=      5-min Rain = 0
KHO1 230116Z 02009KT 02/M11 A3015 RMK A01 T00151107  RH  040%=      5-min Rain = 0
KHO1 230117Z 02009KT 02/M11 A3015 RMK A01 T00151107  RH  040%=      5-min Rain = 0
KHO1 230118Z 01009KT 01/M11 A3015 RMK A01 T00141107  RH  040%=      5-min Rain = 0
KHO1 230119Z 01010KT 01/M11 A3015 RMK A01 T00141107  RH  040%=      5-min Rain = 0
KHO1 230120Z 01010KT 01/M11 A3015 RMK A01 T00141107  RH  040%=      5-min Rain = 0
KHO1 230121Z 01009KT 01/M11 A3016 RMK A01 T00141107  RH  040%=      5-min Rain = 0
KHO1 230122Z 01010KT 01/M11 A3016 RMK A01 T00141106  RH  040%=      5-min Rain = 0
KHO1 230123Z 01010KT 01/M11 A3016 RMK A01 T00141107  RH  040%=      5-min Rain = 0
KHO1 230124Z 01009KT 01/M11 A3016 RMK A01 T00141106  RH  040%=      5-min Rain = 0
KHO1 230125Z 01010KT 01/M11 A3016 RMK A01 T00141106  RH  040%=      5-min Rain = 0
KHO1 230126Z 01008KT 01/M11 A3016 RMK A01 T00131106  RH  041%=      5-min Rain = 0
KHO1 230127Z 01010KT 01/M11 A3016 RMK A01 T00131106  RH  041%=      5-min Rain = 0
KHO1 230128Z 01010KT 01/M11 A3016 RMK A01 T00131106  RH  041%=      5-min Rain = 0
KHO1 230129Z 01008KT 01/M11 A3016 RMK A01 T00121106  RH  041%=      5-min Rain = 0
KHO1 230130Z 01010KT 01/M11 A3016 RMK A01 T00121106  RH  041%=      5-min Rain = 0
KHO1 230131Z 01009KT 01/M11 A3016 RMK A01 T00121106  RH  041%=      5-min Rain = 0
KHO1 230132Z 01009KT 01/M11 A3016 RMK A01 T00121106  RH  041%=      5-min Rain = 0
KHO1 230133Z 01010KT 01/M11 A3016 RMK A01 T00121106  RH  041%=      5-min Rain = 0
KHO1 230134Z 01010KT 01/M11 A3016 RMK A01 T00121106  RH  041%=      5-min Rain = 0
KHO1 230135Z 01011KT 01/M11 A3016 RMK A01 T00121106  RH  041%=      5-min Rain = 0
KHO1 230136Z 01009KT 01/M11 A3016 RMK A01 T00121106  RH  041%=      5-min Rain = 0
KHO1 230137Z 01009KT 01/M11 A3016 RMK A01 T00121106  RH  041%=      5-min Rain = 0
KHO1 230138Z 01010KT 01/M11 A3016 RMK A01 T00111106  RH  041%=      5-min Rain = 0
KHO1 230139Z 01008KT 01/M11 A3016 RMK A01 T00111106  RH  041%=      5-min Rain = 0
KHO1 230140Z 01010KT 01/M11 A3016 RMK A01 T00101106  RH  042%=      5-min Rain = 0
KHO1 230141Z 01009KT 01/M11 A3017 RMK A01 T00101106  RH  042%=      5-min Rain = 0
KHO1 230142Z 01009KT 01/M11 A3017 RMK A01 T00101105  RH  042%=      5-min Rain = 0
KHO1 230143Z 01008KT 01/M11 A3017 RMK A01 T00101105  RH  042%=      5-min Rain = 0
KHO1 230144Z 01008KT 01/M11 A3017 RMK A01 T00101105  RH  042%=      5-min Rain = 0
KHO1 230145Z 01007KT 01/M11 A3017 RMK A01 T00091105  RH  042%=      5-min Rain = 0
KHO1 230146Z 01008KT 01/M11 A3017 RMK A01 T00091105  RH  042%=      5-min Rain = 0
KHO1 230147Z 01009KT 01/M11 A3017 RMK A01 T00091105  RH  042%=      5-min Rain = 0
KHO1 230148Z 01009KT 01/M11 A3017 RMK A01 T00081105  RH  043%=      5-min Rain = 0
KHO1 230149Z 01008KT 01/M11 A3017 RMK A01 T00081105  RH  043%=      5-min Rain = 0
KHO1 230150Z 01010KT 01/M10 A3017 RMK A01 T00071104  RH  043%=      5-min Rain = 0
KHO1 230151Z 01009KT 01/M10 A3017 RMK A01 T00071104  RH  043%=      5-min Rain = 0
KHO1 230152Z 01010KT 01/M10 A3017 RMK A01 T00071104  RH  043%=      5-min Rain = 0
KHO1 230153Z 01010KT 01/M10 A3017 RMK A01 T00081104  RH  043%=      5-min Rain = 0
KHO1 230154Z 01010KT 01/M10 A3017 RMK A01 T00081104  RH  043%=      5-min Rain = 0
KHO1 230155Z 01010KT 01/M10 A3017 RMK A01 T00081104  RH  043%=      5-min Rain = 0
KHO1 230201Z 01010KT 01/M10 A3017 RMK A01 T00081103  RH  043%=      5-min Rain = 0
KHO1 230202Z 01010KT 01/M10 A3017 RMK A01 T00081103  RH  043%=      5-min Rain = 0
KHO1 230203Z 01009KT 01/M10 A3017 RMK A01 T00071103  RH  043%=      5-min Rain = 0
KHO1 230204Z 01011KT 01/M10 A3017 RMK A01 T00071103  RH  043%=      5-min Rain = 0
KHO1 230205Z 01010KT 01/M10 A3017 RMK A01 T00071103  RH  044%=      5-min Rain = 0
KHO1 230206Z 01010KT 01/M10 A3017 RMK A01 T00071103  RH  044%=      5-min Rain = 0
KHO1 230207Z 01010KT 01/M10 A3017 RMK A01 T00061103  RH  044%=      5-min Rain = 0
KHO1 230208Z 01009KT 01/M10 A3017 RMK A01 T00061103  RH  044%=      5-min Rain = 0
KHO1 230209Z 01011KT 01/M10 A3017 RMK A01 T00061103  RH  044%=      5-min Rain = 0
KHO1 230210Z 01009KT 01/M10 A3017 RMK A01 T00051102  RH  044%=      5-min Rain = 0
KHO1 230211Z 01010KT 01/M10 A3017 RMK A01 T00051102  RH  044%=      5-min Rain = 0
KHO1 230212Z 01010KT 01/M10 A3017 RMK A01 T00051102  RH  044%=      5-min Rain = 0
KHO1 230213Z 01009KT 01/M10 A3018 RMK A01 T00051102  RH  045%=      5-min Rain = 0
KHO1 230214Z 01008KT 00/M10 A3018 RMK A01 T00041102  RH  045%=      5-min Rain = 0
KHO1 230215Z 01008KT 00/M10 A3018 RMK A01 T00041102  RH  045%=      5-min Rain = 0
KHO1 230216Z 01010KT 00/M10 A3018 RMK A01 T00031102  RH  045%=      5-min Rain = 0
KHO1 230217Z 01008KT 00/M10 A3018 RMK A01 T00031102  RH  045%=      5-min Rain = 0
KHO1 230218Z 01008KT 00/M10 A3018 RMK A01 T00031102  RH  045%=      5-min Rain = 0
KHO1 230219Z 01009KT 00/M10 A3018 RMK A01 T00021102  RH  046%=      5-min Rain = 0
KHO1 230220Z 01008KT 00/M10 A3018 RMK A01 T00021101  RH  046%=      5-min Rain = 0
KHO1 230221Z 01008KT 00/M10 A3018 RMK A01 T00021101  RH  046%=      5-min Rain = 0
KHO1 230222Z 01008KT 00/M10 A3018 RMK A01 T00021101  RH  046%=      5-min Rain = 0
KHO1 230223Z 02008KT 00/M10 A3018 RMK A01 T00011101  RH  046%=      5-min Rain = 0
KHO1 230224Z 02008KT 00/M10 A3018 RMK A01 T00011101  RH  046%=      5-min Rain = 0
KHO1 230225Z 02008KT 00/M10 A3018 RMK A01 T00011101  RH  046%=      5-min Rain = 0
KHO1 230226Z 01008KT 00/M10 A3019 RMK A01 T00011101  RH  046%=      5-min Rain = 0
KHO1 230227Z 01007KT 00/M10 A3019 RMK A01 T00011101  RH  046%=      5-min Rain = 0
KHO1 230228Z 01007KT 00/10 A3019 RMK A01 T00000-101  RH  046%=      5-min Rain = 0
KHO1 230229Z 01007KT 00/10 A3019 RMK A01 T00000-101  RH  047%=      5-min Rain = 0
KHO1 230230Z 01007KT 00/10 A3019 RMK A01 T00000-101  RH  047%=      5-min Rain = 0
KHO1 230231Z 01006KT 00/10 A3019 RMK A01 T00000-101  RH  047%=      5-min Rain = 0
KHO1 230232Z 01007KT 00/10 A3019 RMK A01 T00000-101  RH  047%=      5-min Rain = 0
KHO1 230233Z 01006KT 00/10 A3019 RMK A01 T00000-101  RH  047%=      5-min Rain = 0
KHO1 230234Z 01006KT 00/10 A3019 RMK A01 T00-00-101  RH  047%=      5-min Rain = 0
KHO1 230235Z 01007KT 00/10 A3019 RMK A01 T00-00-101  RH  047%=      5-min Rain = 0
KHO1 230236Z 01007KT 00/10 A3019 RMK A01 T00-00-100  RH  047%=      5-min Rain = 0
KHO1 230237Z 01006KT 00/10 A3019 RMK A01 T00-00-101  RH  047%=      5-min Rain = 0
KHO1 230238Z 01006KT 00/10 A3019 RMK A01 T00-00-101  RH  047%=      5-min Rain = 0
KHO1 230239Z 00006KT 00/10 A3019 RMK A01 T00-00-101  RH  047%=      5-min Rain = 0
KHO1 230240Z 00006KT M00/M10 A3019 RMK A01 T10011101  RH  047%=      5-min Rain = 0
KHO1 230241Z 00005KT M00/M10 A3019 RMK A01 T10021101  RH  047%=      5-min Rain = 0
KHO1 230242Z 00006KT M00/M10 A3019 RMK A01 T10021101  RH  047%=      5-min Rain = 0
KHO1 230243Z 01006KT M00/M10 A3019 RMK A01 T10031101  RH  048%=      5-min Rain = 0
KHO1 230244Z 36006KT M00/M10 A3019 RMK A01 T10031101  RH  048%=      5-min Rain = 0
KHO1 230245Z 00006KT M00/M10 A3019 RMK A01 T10041101  RH  048%=      5-min Rain = 0
KHO1 230246Z 01007KT M00/M10 A3019 RMK A01 T10041101  RH  048%=      5-min Rain = 0
KHO1 230247Z 01007KT M00/M10 A3019 RMK A01 T10041100  RH  048%=      5-min Rain = 0
KHO1 230248Z 01007KT M00/M10 A302 RMK A01 T10041100  RH  048%=      5-min Rain = 0
KHO1 230249Z 01006KT M00/M10 A302 RMK A01 T10031100  RH  048%=      5-min Rain = 0
KHO1 230250Z 01006KT M00/M10 A302 RMK A01 T10041100  RH  048%=      5-min Rain = 0
KHO1 230251Z 01007KT M00/M10 A302 RMK A01 T10041100  RH  048%=      5-min Rain = 0
KHO1 230252Z 01007KT M00/M10 A302 RMK A01 T10041100  RH  048%=      5-min Rain = 0
KHO1 230253Z 01006KT M00/M10 A302 RMK A01 T10041100  RH  048%=      5-min Rain = 0
KHO1 230254Z 01006KT M00/M10 A302 RMK A01 T10041100  RH  048%=      5-min Rain = 0
KHO1 230255Z 01007KT M00/M10 A302 RMK A01 T10041100  RH  048%=      5-min Rain = 0
KHO1 230256Z 01006KT M00/M10 A302 RMK A01 T10041100  RH  048%=      5-min Rain = 0
KHO1 230257Z 01007KT M00/M10 A302 RMK A01 T10031100  RH  048%=      5-min Rain = 0
KHO1 230258Z 01007KT M00/M10 A302 RMK A01 T10031100  RH  048%=      5-min Rain = 0
KHO1 230259Z 01007KT M00/M10 A302 RMK A01 T10031100  RH  048%=      5-min Rain = 0
KHO1 230300Z 01007KT M00/M10 A302 RMK A01 T10031099  RH  048%=      5-min Rain = 0
KHO1 230301Z 01007KT M00/M10 A302 RMK A01 T10031099  RH  048%=      5-min Rain = 0
KHO1 230302Z 01007KT M00/M10 A302 RMK A01 T10031099  RH  048%=      5-min Rain = 0
KHO1 230303Z 01007KT M00/M10 A302 RMK A01 T10031099  RH  048%=      5-min Rain = 0
KHO1 230304Z 01007KT M00/M10 A302 RMK A01 T10031099  RH  048%=      5-min Rain = 0
KHO1 230305Z 01007KT M00/M10 A302 RMK A01 T10031099  RH  048%=      5-min Rain = 0
KHO1 230306Z 01006KT M00/M10 A302 RMK A01 T10031099  RH  048%=      5-min Rain = 0
KHO1 230307Z 01006KT M00/M10 A3021 RMK A01 T10041099  RH  049%=      5-min Rain = 0
KHO1 230308Z 01006KT M00/M10 A3021 RMK A01 T10041099  RH  049%=      5-min Rain = 0
KHO1 230309Z 01006KT M00/M10 A3021 RMK A01 T10041099  RH  049%=      5-min Rain = 0
KHO1 230310Z 01005KT M01/M10 A3021 RMK A01 T10051099  RH  049%=      5-min Rain = 0
KHO1 230311Z 01006KT M01/M10 A3021 RMK A01 T10051099  RH  049%=      5-min Rain = 0
KHO1 230312Z 00005KT M01/M10 A3021 RMK A01 T10051099  RH  049%=      5-min Rain = 0
KHO1 230313Z 00005KT M01/M10 A3021 RMK A01 T10051099  RH  049%=      5-min Rain = 0
KHO1 230314Z 01005KT M01/M10 A3021 RMK A01 T10051099  RH  049%=      5-min Rain = 0
KHO1 230315Z 00005KT M01/M10 A3021 RMK A01 T10061099  RH  049%=      5-min Rain = 0
KHO1 230316Z 36005KT M01/M10 A3021 RMK A01 T10071099  RH  050%=      5-min Rain = 0
KHO1 230317Z 36006KT M01/M10 A3021 RMK A01 T10071099  RH  050%=      5-min Rain = 0
KHO1 230318Z 36005KT M01/M10 A3021 RMK A01 T10071099  RH  050%=      5-min Rain = 0
KHO1 230319Z 36005KT M01/M10 A3021 RMK A01 T10071099  RH  050%=      5-min Rain = 0
KHO1 230320Z 36005KT M01/M10 A3021 RMK A01 T10081099  RH  050%=      5-min Rain = 0
KHO1 230321Z 35005KT M01/M10 A3021 RMK A01 T10081098  RH  050%=      5-min Rain = 0
KHO1 230322Z 36005KT M01/M10 A3022 RMK A01 T10081099  RH  050%=      5-min Rain = 0
KHO1 230323Z 36004KT M01/M10 A3022 RMK A01 T10081098  RH  050%=      5-min Rain = 0
KHO1 230324Z 35005KT M01/M10 A3022 RMK A01 T10081098  RH  050%=      5-min Rain = 0
KHO1 230325Z 35004KT M01/M10 A3022 RMK A01 T10081098  RH  051%=      5-min Rain = 0
KHO1 230326Z 35005KT M01/M10 A3022 RMK A01 T10091098  RH  051%=      5-min Rain = 0
KHO1 230327Z 35005KT M01/M10 A3022 RMK A01 T10091098  RH  051%=      5-min Rain = 0
KHO1 230328Z 35005KT M01/M10 A3022 RMK A01 T10091098  RH  051%=      5-min Rain = 0
KHO1 230329Z 35005KT M01/M10 A3022 RMK A01 T10091099  RH  051%=      5-min Rain = 0
KHO1 230330Z 35005KT M01/M10 A3022 RMK A01 T10101099  RH  051%=      5-min Rain = 0
KHO1 230331Z 35005KT M01/M10 A3022 RMK A01 T10101099  RH  051%=      5-min Rain = 0
KHO1 230332Z 35005KT M01/M10 A3022 RMK A01 T10101099  RH  051%=      5-min Rain = 0
KHO1 230333Z 35005KT M01/M10 A3022 RMK A01 T10101098  RH  051%=      5-min Rain = 0
KHO1 230334Z 35005KT M01/M10 A3022 RMK A01 T10101098  RH  051%=      5-min Rain = 0
KHO1 230335Z 35005KT M01/M10 A3022 RMK A01 T10101098  RH  051%=      5-min Rain = 0
KHO1 230336Z 35006KT M01/M10 A3022 RMK A01 T10101098  RH  051%=      5-min Rain = 0
KHO1 230337Z 34005KT M01/M10 A3022 RMK A01 T10101097  RH  052%=      5-min Rain = 0
KHO1 230338Z 34005KT M01/M10 A3022 RMK A01 T10111097  RH  052%=      5-min Rain = 0
KHO1 230339Z 35006KT M01/M10 A3022 RMK A01 T10111097  RH  052%=      5-min Rain = 0
KHO1 230340Z 35006KT M01/M10 A3022 RMK A01 T10111097  RH  052%=      5-min Rain = 0
KHO1 230341Z 35006KT M01/M10 A3022 RMK A01 T10101097  RH  052%=      5-min Rain = 0
KHO1 230342Z 35005KT M01/M10 A3023 RMK A01 T10101096  RH  052%=      5-min Rain = 0
KHO1 230343Z 35005KT M01/M10 A3023 RMK A01 T10101096  RH  052%=      5-min Rain = 0
KHO1 230344Z 35005KT M01/M10 A3023 RMK A01 T10101096  RH  052%=      5-min Rain = 0
KHO1 230345Z 35004KT M01/M10 A3023 RMK A01 T10111096  RH  052%=      5-min Rain = 0
KHO1 230346Z 34004KT M01/M10 A3023 RMK A01 T10111096  RH  052%=      5-min Rain = 0
KHO1 230347Z 34003KT M01/M10 A3023 RMK A01 T10121096  RH  053%=      5-min Rain = 0
KHO1 230348Z 34004KT M01/M10 A3023 RMK A01 T10131096  RH  053%=      5-min Rain = 0
KHO1 230349Z 34003KT M01/M10 A3023 RMK A01 T10131096  RH  053%=      5-min Rain = 0
KHO1 230350Z 33003KT M01/M10 A3023 RMK A01 T10141096  RH  054%=      5-min Rain = 0
KHO1 230351Z 33004KT M01/M10 A3023 RMK A01 T10141096  RH  054%=      5-min Rain = 0
KHO1 230352Z 33003KT M01/M10 A3023 RMK A01 T10141096  RH  054%=      5-min Rain = 0
KHO1 230353Z 33004KT M01/M10 A3023 RMK A01 T10131096  RH  053%=      5-min Rain = 0
KHO1 230354Z 33004KT M01/M10 A3023 RMK A01 T10141096  RH  053%=      5-min Rain = 0
KHO1 230355Z 33004KT M01/M10 A3023 RMK A01 T10141096  RH  053%=      5-min Rain = 0
KHO1 230356Z 33003KT M01/M10 A3023 RMK A01 T10141096  RH  054%=      5-min Rain = 0
KHO1 230357Z 33002KT M02/M10 A3023 RMK A01 T10151096  RH  054%=      5-min Rain = 0
KHO1 230358Z 33002KT M02/M10 A3023 RMK A01 T10161096  RH  054%=      5-min Rain = 0
KHO1 230359Z 33002KT M02/M10 A3023 RMK A01 T10171096  RH  055%=      5-min Rain = 0
KHO1 230400Z 33003KT M02/M10 A3023 RMK A01 T10181096  RH  055%=      5-min Rain = 0
KHO1 230401Z 33003KT M02/M10 A3023 RMK A01 T10191097  RH  055%=      5-min Rain = 0
KHO1 230402Z 33003KT M02/M10 A3023 RMK A01 T10191097  RH  056%=      5-min Rain = 0
KHO1 230403Z 32003KT M02/M10 A3023 RMK A01 T10201097  RH  056%=      5-min Rain = 0
KHO1 230404Z 33004KT M02/M10 A3023 RMK A01 T10201097  RH  056%=      5-min Rain = 0
KHO1 230405Z 34003KT M02/M10 A3023 RMK A01 T10211097  RH  056%=      5-min Rain = 0
KHO1 230406Z 33003KT M02/M10 A3023 RMK A01 T10211097  RH  056%=      5-min Rain = 0
KHO1 230407Z 33003KT M02/M10 A3023 RMK A01 T10211096  RH  056%=      5-min Rain = 0
KHO1 230408Z 33003KT M02/M10 A3023 RMK A01 T10221096  RH  057%=      5-min Rain = 0
KHO1 230409Z 33003KT M02/M10 A3023 RMK A01 T10221096  RH  057%=      5-min Rain = 0
KHO1 230410Z 33003KT M02/M10 A3023 RMK A01 T10221096  RH  057%=      5-min Rain = 0
KHO1 230411Z 33002KT M02/M10 A3023 RMK A01 T10221096  RH  057%=      5-min Rain = 0
KHO1 230412Z 33003KT M02/M10 A3023 RMK A01 T10221096  RH  057%=      5-min Rain = 0
KHO1 230413Z 33003KT M02/M10 A3023 RMK A01 T10221096  RH  057%=      5-min Rain = 0
KHO1 230414Z 33003KT M02/M10 A3023 RMK A01 T10221096  RH  057%=      5-min Rain = 0
KHO1 230415Z 33003KT M02/M10 A3023 RMK A01 T10221096  RH  057%=      5-min Rain = 0
KHO1 230416Z 33003KT M02/M10 A3023 RMK A01 T10221096  RH  057%=      5-min Rain = 0
KHO1 230417Z 33003KT M02/M10 A3023 RMK A01 T10221096  RH  057%=      5-min Rain = 0
KHO1 230418Z 32003KT M02/M10 A3023 RMK A01 T10221096  RH  057%=      5-min Rain = 0
KHO1 230419Z 32003KT M02/M10 A3023 RMK A01 T10221096  RH  057%=      5-min Rain = 0
KHO1 230420Z 32002KT M02/M10 A3023 RMK A01 T10231097  RH  057%=      5-min Rain = 0
KHO1 230421Z 32002KT M02/M10 A3023 RMK A01 T10231097  RH  057%=      5-min Rain = 0
KHO1 230422Z 32002KT M02/M10 A3023 RMK A01 T10241097  RH  057%=      5-min Rain = 0
KHO1 230423Z 33001KT M02/M10 A3024 RMK A01 T10241097  RH  057%=      5-min Rain = 0
KHO1 230424Z 33001KT M02/M10 A3024 RMK A01 T10241097  RH  057%=      5-min Rain = 0
KHO1 230425Z 33000KT M03/M10 A3024 RMK A01 T10251097  RH  057%=      5-min Rain = 0
KHO1 230426Z 00000KT M03/M10 A3024 RMK A01 T10251097  RH  058%=      5-min Rain = 0
KHO1 230427Z 32001KT M03/M10 A3024 RMK A01 T10261097  RH  058%=      5-min Rain = 0
KHO1 230428Z 32001KT M03/M10 A3024 RMK A01 T10261097  RH  058%=      5-min Rain = 0
KHO1 230429Z 33001KT M03/M10 A3024 RMK A01 T10261098  RH  058%=      5-min Rain = 0
KHO1 230430Z 00000KT M03/M10 A3024 RMK A01 T10261097  RH  058%=      5-min Rain = 0
KHO1 230431Z 32001KT M03/M10 A3024 RMK A01 T10271097  RH  058%=      5-min Rain = 0
KHO1 230432Z 32001KT M03/M10 A3024 RMK A01 T10271097  RH  058%=      5-min Rain = 0
KHO1 230433Z 32001KT M03/M10 A3024 RMK A01 T10271098  RH  058%=      5-min Rain = 0
KHO1 230434Z 32001KT M03/M10 A3024 RMK A01 T10271097  RH  058%=      5-min Rain = 0
KHO1 230435Z 32001KT M03/M10 A3024 RMK A01 T10271098  RH  058%=      5-min Rain = 0
KHO1 230436Z 32002KT M03/M10 A3024 RMK A01 T10271097  RH  059%=      5-min Rain = 0
KHO1 230437Z 32003KT M03/M10 A3024 RMK A01 T10271097  RH  058%=      5-min Rain = 0
KHO1 230438Z 32004KT M03/M10 A3024 RMK A01 T10271097  RH  058%=      5-min Rain = 0
KHO1 230439Z 32003KT M03/M10 A3024 RMK A01 T10271097  RH  059%=      5-min Rain = 0
KHO1 230440Z 32003KT M03/M10 A3024 RMK A01 T10281097  RH  059%=      5-min Rain = 0
KHO1 230441Z 32004KT M03/M10 A3024 RMK A01 T10291098  RH  059%=      5-min Rain = 0
KHO1 230442Z 32004KT M03/M10 A3024 RMK A01 T10301098  RH  059%=      5-min Rain = 0
KHO1 230443Z 32004KT M03/M10 A3024 RMK A01 T10301098  RH  060%=      5-min Rain = 0
KHO1 230444Z 31004KT M03/M10 A3024 RMK A01 T10311098  RH  060%=      5-min Rain = 0
KHO1 230445Z 31004KT M03/M10 A3024 RMK A01 T10311098  RH  060%=      5-min Rain = 0
KHO1 230446Z 31003KT M03/M10 A3024 RMK A01 T10321098  RH  060%=      5-min Rain = 0
KHO1 230447Z 31004KT M03/M10 A3024 RMK A01 T10321098  RH  061%=      5-min Rain = 0
KHO1 230448Z 31004KT M03/M10 A3024 RMK A01 T10331098  RH  061%=      5-min Rain = 0
KHO1 230449Z 30003KT M03/M10 A3024 RMK A01 T10331097  RH  061%=      5-min Rain = 0
KHO1 230450Z 30003KT M03/M10 A3024 RMK A01 T10341098  RH  061%=      5-min Rain = 0
KHO1 230451Z 30003KT M03/M10 A3024 RMK A01 T10341097  RH  062%=      5-min Rain = 0
KHO1 230452Z 30003KT M03/M10 A3024 RMK A01 T10341097  RH  062%=      5-min Rain = 0
KHO1 230453Z 30002KT M03/M10 A3024 RMK A01 T10341098  RH  062%=      5-min Rain = 0
KHO1 230454Z 30002KT M04/M10 A3025 RMK A01 T10351098  RH  062%=      5-min Rain = 0
KHO1 230455Z 30002KT M04/M10 A3025 RMK A01 T10351099  RH  062%=      5-min Rain = 0
KHO1 230456Z 30002KT M04/M10 A3025 RMK A01 T10361098  RH  062%=      5-min Rain = 0
KHO1 230457Z 30002KT M04/M10 A3025 RMK A01 T10361098  RH  062%=      5-min Rain = 0
KHO1 230458Z 30003KT M04/M10 A3025 RMK A01 T10361098  RH  062%=      5-min Rain = 0
KHO1 230459Z 30003KT M04/M10 A3025 RMK A01 T10361098  RH  062%=      5-min Rain = 0
KHO1 230500Z 30004KT M04/M10 A3025 RMK A01 T10361098  RH  062%=      5-min Rain = 0
KHO1 230501Z 30003KT M04/M10 A3025 RMK A01 T10361099  RH  062%=      5-min Rain = 0
KHO1 230502Z 30004KT M04/M10 A3025 RMK A01 T10371100  RH  062%=      5-min Rain = 0
KHO1 230503Z 30004KT M04/M10 A3025 RMK A01 T10371100  RH  062%=      5-min Rain = 0
KHO1 230504Z 31004KT M04/M10 A3025 RMK A01 T10381100  RH  062%=      5-min Rain = 0
KHO1 230505Z 30004KT M04/M10 A3025 RMK A01 T10391100  RH  062%=      5-min Rain = 0
KHO1 230506Z 31005KT M04/M10 A3025 RMK A01 T10391100  RH  062%=      5-min Rain = 0
KHO1 230507Z 31005KT M04/M10 A3025 RMK A01 T10391100  RH  062%=      5-min Rain = 0
KHO1 230508Z 31004KT M04/M10 A3025 RMK A01 T10391100  RH  062%=      5-min Rain = 0
KHO1 230509Z 31004KT M04/M10 A3025 RMK A01 T10381100  RH  062%=      5-min Rain = 0
KHO1 230510Z 32004KT M04/M10 A3025 RMK A01 T10381100  RH  062%=      5-min Rain = 0
KHO1 230511Z 32005KT M04/M10 A3025 RMK A01 T10381100  RH  062%=      5-min Rain = 0
KHO1 230512Z 32004KT M04/M10 A3025 RMK A01 T10381099  RH  063%=      5-min Rain = 0
KHO1 230513Z 32005KT M04/M10 A3025 RMK A01 T10381099  RH  063%=      5-min Rain = 0
KHO1 230514Z 33004KT M04/M10 A3025 RMK A01 T10381098  RH  063%=      5-min Rain = 0
KHO1 230515Z 33004KT M04/M10 A3025 RMK A01 T10371097  RH  063%=      5-min Rain = 0
KHO1 230516Z 33004KT M04/M10 A3025 RMK A01 T10361097  RH  062%=      5-min Rain = 0
KHO1 230517Z 33004KT M04/M10 A3025 RMK A01 T10351097  RH  062%=      5-min Rain = 0
KHO1 230518Z 33004KT M03/M10 A3025 RMK A01 T10341096  RH  062%=      5-min Rain = 0
KHO1 230519Z 33004KT M03/M10 A3025 RMK A01 T10341096  RH  062%=      5-min Rain = 0
KHO1 230520Z 33004KT M03/M10 A3025 RMK A01 T10331096  RH  062%=      5-min Rain = 0
KHO1 230521Z 33004KT M03/M10 A3025 RMK A01 T10331096  RH  062%=      5-min Rain = 0
KHO1 230522Z 33004KT M03/M10 A3025 RMK A01 T10321096  RH  061%=      5-min Rain = 0
KHO1 230523Z 33003KT M03/M10 A3025 RMK A01 T10321096  RH  061%=      5-min Rain = 0
KHO1 230524Z 33003KT M03/M10 A3025 RMK A01 T10311096  RH  061%=      5-min Rain = 0
KHO1 230525Z 33003KT M03/M10 A3025 RMK A01 T10311096  RH  061%=      5-min Rain = 0
KHO1 230526Z 34003KT M03/M10 A3025 RMK A01 T10311096  RH  061%=      5-min Rain = 0
KHO1 230527Z 34003KT M03/M10 A3025 RMK A01 T10311096  RH  061%=      5-min Rain = 0
KHO1 230528Z 34003KT M03/M10 A3025 RMK A01 T10311096  RH  061%=      5-min Rain = 0
KHO1 230529Z 34003KT M03/M10 A3025 RMK A01 T10311096  RH  060%=      5-min Rain = 0
KHO1 230530Z 34004KT M03/M10 A3026 RMK A01 T10301096  RH  060%=      5-min Rain = 0
KHO1 230531Z 34003KT M03/M10 A3025 RMK A01 T10311097  RH  060%=      5-min Rain = 0
KHO1 230532Z 34003KT M03/M10 A3026 RMK A01 T10301097  RH  060%=      5-min Rain = 0
KHO1 230533Z 34003KT M03/M10 A3025 RMK A01 T10301097  RH  060%=      5-min Rain = 0
KHO1 230534Z 34003KT M03/M10 A3025 RMK A01 T10301096  RH  060%=      5-min Rain = 0
KHO1 230535Z 34002KT M03/M10 A3025 RMK A01 T10301095  RH  060%=      5-min Rain = 0
KHO1 230536Z 33002KT M03/M10 A3025 RMK A01 T10291095  RH  060%=      5-min Rain = 0
KHO1 230537Z 32003KT M03/M10 A3025 RMK A01 T10291095  RH  060%=      5-min Rain = 0
KHO1 230538Z 32002KT M03/M10 A3025 RMK A01 T10291095  RH  060%=      5-min Rain = 0
KHO1 230539Z 32003KT M03/M10 A3025 RMK A01 T10301096  RH  060%=      5-min Rain = 0
KHO1 230540Z 32004KT M03/M10 A3025 RMK A01 T10301096  RH  060%=      5-min Rain = 0
KHO1 230541Z 31004KT M03/M10 A3025 RMK A01 T10311097  RH  060%=      5-min Rain = 0
KHO1 230542Z 31005KT M03/M10 A3026 RMK A01 T10321097  RH  061%=      5-min Rain = 0
KHO1 230543Z 31005KT M03/M10 A3026 RMK A01 T10331097  RH  061%=      5-min Rain = 0
KHO1 230544Z 31005KT M03/M10 A3026 RMK A01 T10341096  RH  062%=      5-min Rain = 0
KHO1 230545Z 31004KT M03/M10 A3026 RMK A01 T10341096  RH  062%=      5-min Rain = 0
KHO1 230546Z 30004KT M04/M10 A3026 RMK A01 T10351097  RH  062%=      5-min Rain = 0
KHO1 230547Z 30004KT M04/M10 A3026 RMK A01 T10351097  RH  062%=      5-min Rain = 0
KHO1 230548Z 30003KT M04/M10 A3026 RMK A01 T10361096  RH  063%=      5-min Rain = 0
KHO1 230549Z 30003KT M04/M10 A3026 RMK A01 T10361095  RH  064%=      5-min Rain = 0
KHO1 230550Z 30003KT M04/M10 A3026 RMK A01 T10371095  RH  064%=      5-min Rain = 0
KHO1 230551Z 30004KT M04/M10 A3026 RMK A01 T10371095  RH  064%=      5-min Rain = 0
KHO1 230552Z 30004KT M04/M10 A3026 RMK A01 T10381096  RH  064%=      5-min Rain = 0
KHO1 230553Z 30004KT M04/M10 A3026 RMK A01 T10381096  RH  064%=      5-min Rain = 0
KHO1 230554Z 30004KT M04/M10 A3026 RMK A01 T10391098  RH  064%=      5-min Rain = 0
KHO1 230555Z 30004KT M04/M10 A3026 RMK A01 T10401099  RH  063%=      5-min Rain = 0
KHO1 230556Z 30004KT M04/M10 A3026 RMK A01 T10401100  RH  063%=      5-min Rain = 0
KHO1 230557Z 30004KT M04/M10 A3026 RMK A01 T10411100  RH  063%=      5-min Rain = 0
KHO1 230558Z 29004KT M04/M10 A3026 RMK A01 T10411101  RH  063%=      5-min Rain = 0
KHO1 230559Z 29004KT M04/M10 A3026 RMK A01 T10411101  RH  063%=      5-min Rain = 0

Page generated in 0.1215 seconds.